<?xml version="1.0" encoding="UTF-8" standalone="no" ?>
<gpx xmlns="http://www.topografix.com/GPX/1/1" xmlns:xsi="http://www.w3.org/2001/XMLSchema-instance" xsi:schemaLocation="http://www.topografix.com/GPX/1/1 http://www.topografix.com/GPX/1/1/gpx.xsd" version="1.1" creator="VisuGPX - https://www.visugpx.com">
  <metadata>
    <name>Rando pédestre montiels</name>
    <desc><![CDATA[Rando pédestre Montiels]]></desc>
  </metadata>
  <trk>
    <name><![CDATA[Monteils Course à pied]]></name>
    <trkseg>
      <trkpt lat="44.26736" lon="1.99864">
        <ele>231.8</ele>
        <time>2015-05-25T08:22:53.000Z</time>
      </trkpt>
      <trkpt lat="44.26733" lon="1.99862">
        <ele>232</ele>
        <time>2015-05-25T08:22:57.000Z</time>
      </trkpt>
      <trkpt lat="44.26732" lon="1.99858">
        <ele>231.9</ele>
        <time>2015-05-25T08:23:01.000Z</time>
      </trkpt>
      <trkpt lat="44.26737" lon="1.99866">
        <ele>231.7</ele>
        <time>2015-05-25T08:23:07.000Z</time>
      </trkpt>
      <trkpt lat="44.2674" lon="1.99877">
        <ele>231.2</ele>
        <time>2015-05-25T08:23:14.000Z</time>
      </trkpt>
      <trkpt lat="44.26742" lon="1.99881">
        <ele>231.1</ele>
        <time>2015-05-25T08:23:17.000Z</time>
      </trkpt>
      <trkpt lat="44.26745" lon="1.99889">
        <ele>230.8</ele>
        <time>2015-05-25T08:23:22.000Z</time>
      </trkpt>
      <trkpt lat="44.26744" lon="1.99899">
        <ele>230.8</ele>
        <time>2015-05-25T08:23:27.000Z</time>
      </trkpt>
      <trkpt lat="44.26738" lon="1.99914">
        <ele>230.6</ele>
        <time>2015-05-25T08:23:36.000Z</time>
      </trkpt>
      <trkpt lat="44.26737" lon="1.99917">
        <ele>230.5</ele>
        <time>2015-05-25T08:23:38.000Z</time>
      </trkpt>
      <trkpt lat="44.26733" lon="1.99927">
        <ele>230.5</ele>
        <time>2015-05-25T08:23:44.000Z</time>
      </trkpt>
      <trkpt lat="44.26727" lon="1.99937">
        <ele>230.6</ele>
        <time>2015-05-25T08:23:51.000Z</time>
      </trkpt>
      <trkpt lat="44.26721" lon="1.99949">
        <ele>230.8</ele>
        <time>2015-05-25T08:23:59.000Z</time>
      </trkpt>
      <trkpt lat="44.26715" lon="1.99962">
        <ele>230</ele>
        <time>2015-05-25T08:24:07.000Z</time>
      </trkpt>
      <trkpt lat="44.2671" lon="1.99974">
        <ele>229.6</ele>
        <time>2015-05-25T08:24:14.000Z</time>
      </trkpt>
      <trkpt lat="44.26704" lon="1.99989">
        <ele>229.7</ele>
        <time>2015-05-25T08:24:23.000Z</time>
      </trkpt>
      <trkpt lat="44.26692" lon="2.00003">
        <ele>229.9</ele>
        <time>2015-05-25T08:24:32.000Z</time>
      </trkpt>
      <trkpt lat="44.26684" lon="2.00011">
        <ele>229.8</ele>
        <time>2015-05-25T08:24:38.000Z</time>
      </trkpt>
      <trkpt lat="44.26679" lon="2.00018">
        <ele>229.8</ele>
        <time>2015-05-25T08:24:44.000Z</time>
      </trkpt>
      <trkpt lat="44.26673" lon="2.00028">
        <ele>230</ele>
        <time>2015-05-25T08:24:51.000Z</time>
      </trkpt>
      <trkpt lat="44.26669" lon="2.00035">
        <ele>230.2</ele>
        <time>2015-05-25T08:24:55.000Z</time>
      </trkpt>
      <trkpt lat="44.26665" lon="2.00048">
        <ele>230.7</ele>
        <time>2015-05-25T08:25:02.000Z</time>
      </trkpt>
      <trkpt lat="44.26659" lon="2.00061">
        <ele>230.9</ele>
        <time>2015-05-25T08:25:10.000Z</time>
      </trkpt>
      <trkpt lat="44.26654" lon="2.00076">
        <ele>230.9</ele>
        <time>2015-05-25T08:25:18.000Z</time>
      </trkpt>
      <trkpt lat="44.26651" lon="2.0009">
        <ele>231.3</ele>
        <time>2015-05-25T08:25:25.000Z</time>
      </trkpt>
      <trkpt lat="44.26644" lon="2.00105">
        <ele>232.7</ele>
        <time>2015-05-25T08:25:33.000Z</time>
      </trkpt>
      <trkpt lat="44.26639" lon="2.00124">
        <ele>233.2</ele>
        <time>2015-05-25T08:25:43.000Z</time>
      </trkpt>
      <trkpt lat="44.26634" lon="2.00136">
        <ele>233.2</ele>
        <time>2015-05-25T08:25:49.000Z</time>
      </trkpt>
      <trkpt lat="44.26631" lon="2.00153">
        <ele>233.1</ele>
        <time>2015-05-25T08:25:57.000Z</time>
      </trkpt>
      <trkpt lat="44.26627" lon="2.00165">
        <ele>233.8</ele>
        <time>2015-05-25T08:26:03.000Z</time>
      </trkpt>
      <trkpt lat="44.26625" lon="2.00179">
        <ele>234.4</ele>
        <time>2015-05-25T08:26:10.000Z</time>
      </trkpt>
      <trkpt lat="44.26625" lon="2.00181">
        <ele>234.3</ele>
        <time>2015-05-25T08:26:11.000Z</time>
      </trkpt>
      <trkpt lat="44.26627" lon="2.00192">
        <ele>233.8</ele>
        <time>2015-05-25T08:26:16.000Z</time>
      </trkpt>
      <trkpt lat="44.26627" lon="2.00194">
        <ele>234</ele>
        <time>2015-05-25T08:26:17.000Z</time>
      </trkpt>
      <trkpt lat="44.26626" lon="2.00211">
        <ele>233.6</ele>
        <time>2015-05-25T08:26:25.000Z</time>
      </trkpt>
      <trkpt lat="44.26623" lon="2.0022">
        <ele>234.1</ele>
        <time>2015-05-25T08:26:30.000Z</time>
      </trkpt>
      <trkpt lat="44.26625" lon="2.00236">
        <ele>232.8</ele>
        <time>2015-05-25T08:26:38.000Z</time>
      </trkpt>
      <trkpt lat="44.26624" lon="2.00252">
        <ele>232.1</ele>
        <time>2015-05-25T08:26:45.000Z</time>
      </trkpt>
      <trkpt lat="44.26624" lon="2.00267">
        <ele>231.7</ele>
        <time>2015-05-25T08:26:52.000Z</time>
      </trkpt>
      <trkpt lat="44.26628" lon="2.0028">
        <ele>230.2</ele>
        <time>2015-05-25T08:27:00.000Z</time>
      </trkpt>
      <trkpt lat="44.26636" lon="2.00288">
        <ele>227.6</ele>
        <time>2015-05-25T08:27:08.000Z</time>
      </trkpt>
      <trkpt lat="44.26648" lon="2.00298">
        <ele>227.5</ele>
        <time>2015-05-25T08:27:16.000Z</time>
      </trkpt>
      <trkpt lat="44.26659" lon="2.00306">
        <ele>228.5</ele>
        <time>2015-05-25T08:27:25.000Z</time>
      </trkpt>
      <trkpt lat="44.26673" lon="2.00314">
        <ele>230.4</ele>
        <time>2015-05-25T08:27:35.000Z</time>
      </trkpt>
      <trkpt lat="44.26682" lon="2.00309">
        <ele>231.6</ele>
        <time>2015-05-25T08:27:42.000Z</time>
      </trkpt>
      <trkpt lat="44.26692" lon="2.003">
        <ele>231.9</ele>
        <time>2015-05-25T08:27:50.000Z</time>
      </trkpt>
      <trkpt lat="44.26701" lon="2.0029">
        <ele>231.5</ele>
        <time>2015-05-25T08:27:57.000Z</time>
      </trkpt>
      <trkpt lat="44.26712" lon="2.0028">
        <ele>231.7</ele>
        <time>2015-05-25T08:28:05.000Z</time>
      </trkpt>
      <trkpt lat="44.26722" lon="2.00272">
        <ele>231.9</ele>
        <time>2015-05-25T08:28:13.000Z</time>
      </trkpt>
      <trkpt lat="44.26734" lon="2.00261">
        <ele>232.1</ele>
        <time>2015-05-25T08:28:22.000Z</time>
      </trkpt>
      <trkpt lat="44.26745" lon="2.00255">
        <ele>232.9</ele>
        <time>2015-05-25T08:28:29.000Z</time>
      </trkpt>
      <trkpt lat="44.26756" lon="2.0025">
        <ele>233.1</ele>
        <time>2015-05-25T08:28:37.000Z</time>
      </trkpt>
      <trkpt lat="44.26768" lon="2.00247">
        <ele>232.3</ele>
        <time>2015-05-25T08:28:44.000Z</time>
      </trkpt>
      <trkpt lat="44.26775" lon="2.00246">
        <ele>232</ele>
        <time>2015-05-25T08:28:49.000Z</time>
      </trkpt>
      <trkpt lat="44.26789" lon="2.00242">
        <ele>232.2</ele>
        <time>2015-05-25T08:28:57.000Z</time>
      </trkpt>
      <trkpt lat="44.26803" lon="2.00237">
        <ele>232.1</ele>
        <time>2015-05-25T08:29:06.000Z</time>
      </trkpt>
      <trkpt lat="44.26807" lon="2.00237">
        <ele>232.2</ele>
        <time>2015-05-25T08:29:09.000Z</time>
      </trkpt>
      <trkpt lat="44.26815" lon="2.00233">
        <ele>231.7</ele>
        <time>2015-05-25T08:29:14.000Z</time>
      </trkpt>
      <trkpt lat="44.26821" lon="2.00232">
        <ele>231.8</ele>
        <time>2015-05-25T08:29:18.000Z</time>
      </trkpt>
      <trkpt lat="44.26831" lon="2.0023">
        <ele>231.8</ele>
        <time>2015-05-25T08:29:23.000Z</time>
      </trkpt>
      <trkpt lat="44.26832" lon="2.0023">
        <ele>231.9</ele>
        <time>2015-05-25T08:29:24.000Z</time>
      </trkpt>
      <trkpt lat="44.26841" lon="2.00227">
        <ele>231.8</ele>
        <time>2015-05-25T08:29:30.000Z</time>
      </trkpt>
      <trkpt lat="44.26849" lon="2.00227">
        <ele>232.3</ele>
        <time>2015-05-25T08:29:36.000Z</time>
      </trkpt>
      <trkpt lat="44.26855" lon="2.00222">
        <ele>231.5</ele>
        <time>2015-05-25T08:29:41.000Z</time>
      </trkpt>
      <trkpt lat="44.26856" lon="2.00221">
        <ele>231.6</ele>
        <time>2015-05-25T08:29:42.000Z</time>
      </trkpt>
      <trkpt lat="44.26871" lon="2.00222">
        <ele>232</ele>
        <time>2015-05-25T08:29:51.000Z</time>
      </trkpt>
      <trkpt lat="44.26881" lon="2.0022">
        <ele>231.9</ele>
        <time>2015-05-25T08:29:58.000Z</time>
      </trkpt>
      <trkpt lat="44.26893" lon="2.0022">
        <ele>231.9</ele>
        <time>2015-05-25T08:30:05.000Z</time>
      </trkpt>
      <trkpt lat="44.269" lon="2.00219">
        <ele>231.9</ele>
        <time>2015-05-25T08:30:10.000Z</time>
      </trkpt>
      <trkpt lat="44.26911" lon="2.00219">
        <ele>231.9</ele>
        <time>2015-05-25T08:30:17.000Z</time>
      </trkpt>
      <trkpt lat="44.26922" lon="2.0022">
        <ele>231.7</ele>
        <time>2015-05-25T08:30:24.000Z</time>
      </trkpt>
      <trkpt lat="44.26925" lon="2.0022">
        <ele>231.7</ele>
        <time>2015-05-25T08:30:26.000Z</time>
      </trkpt>
      <trkpt lat="44.26938" lon="2.00225">
        <ele>232.1</ele>
        <time>2015-05-25T08:30:34.000Z</time>
      </trkpt>
      <trkpt lat="44.2695" lon="2.00229">
        <ele>233.3</ele>
        <time>2015-05-25T08:30:42.000Z</time>
      </trkpt>
      <trkpt lat="44.26961" lon="2.00232">
        <ele>234.1</ele>
        <time>2015-05-25T08:30:49.000Z</time>
      </trkpt>
      <trkpt lat="44.2697" lon="2.00236">
        <ele>235</ele>
        <time>2015-05-25T08:30:56.000Z</time>
      </trkpt>
      <trkpt lat="44.26982" lon="2.00241">
        <ele>235.8</ele>
        <time>2015-05-25T08:31:04.000Z</time>
      </trkpt>
      <trkpt lat="44.26995" lon="2.00248">
        <ele>236.1</ele>
        <time>2015-05-25T08:31:12.000Z</time>
      </trkpt>
      <trkpt lat="44.27004" lon="2.00252">
        <ele>236.1</ele>
        <time>2015-05-25T08:31:18.000Z</time>
      </trkpt>
      <trkpt lat="44.27012" lon="2.00257">
        <ele>236.9</ele>
        <time>2015-05-25T08:31:24.000Z</time>
      </trkpt>
      <trkpt lat="44.27026" lon="2.00264">
        <ele>238.2</ele>
        <time>2015-05-25T08:31:33.000Z</time>
      </trkpt>
      <trkpt lat="44.27038" lon="2.00268">
        <ele>238.6</ele>
        <time>2015-05-25T08:31:41.000Z</time>
      </trkpt>
      <trkpt lat="44.27054" lon="2.00274">
        <ele>240</ele>
        <time>2015-05-25T08:31:52.000Z</time>
      </trkpt>
      <trkpt lat="44.27062" lon="2.00278">
        <ele>240.6</ele>
        <time>2015-05-25T08:31:58.000Z</time>
      </trkpt>
      <trkpt lat="44.27071" lon="2.00281">
        <ele>240.1</ele>
        <time>2015-05-25T08:32:04.000Z</time>
      </trkpt>
      <trkpt lat="44.27073" lon="2.00281">
        <ele>240</ele>
        <time>2015-05-25T08:32:05.000Z</time>
      </trkpt>
      <trkpt lat="44.27079" lon="2.00284">
        <ele>239.9</ele>
        <time>2015-05-25T08:32:10.000Z</time>
      </trkpt>
      <trkpt lat="44.27091" lon="2.0029">
        <ele>239.3</ele>
        <time>2015-05-25T08:32:18.000Z</time>
      </trkpt>
      <trkpt lat="44.27098" lon="2.00292">
        <ele>239.1</ele>
        <time>2015-05-25T08:32:23.000Z</time>
      </trkpt>
      <trkpt lat="44.27107" lon="2.00296">
        <ele>239.3</ele>
        <time>2015-05-25T08:32:29.000Z</time>
      </trkpt>
      <trkpt lat="44.27115" lon="2.00301">
        <ele>239.9</ele>
        <time>2015-05-25T08:32:35.000Z</time>
      </trkpt>
      <trkpt lat="44.27123" lon="2.00305">
        <ele>240.2</ele>
        <time>2015-05-25T08:32:41.000Z</time>
      </trkpt>
      <trkpt lat="44.27129" lon="2.00308">
        <ele>239.7</ele>
        <time>2015-05-25T08:32:46.000Z</time>
      </trkpt>
      <trkpt lat="44.27136" lon="2.00312">
        <ele>239.4</ele>
        <time>2015-05-25T08:32:51.000Z</time>
      </trkpt>
      <trkpt lat="44.27143" lon="2.00316">
        <ele>239.7</ele>
        <time>2015-05-25T08:32:56.000Z</time>
      </trkpt>
      <trkpt lat="44.2715" lon="2.00318">
        <ele>239.8</ele>
        <time>2015-05-25T08:33:01.000Z</time>
      </trkpt>
      <trkpt lat="44.27162" lon="2.00326">
        <ele>241.2</ele>
        <time>2015-05-25T08:33:09.000Z</time>
      </trkpt>
      <trkpt lat="44.27168" lon="2.0033">
        <ele>241.8</ele>
        <time>2015-05-25T08:33:13.000Z</time>
      </trkpt>
      <trkpt lat="44.27175" lon="2.00334">
        <ele>241.6</ele>
        <time>2015-05-25T08:33:17.000Z</time>
      </trkpt>
      <trkpt lat="44.27185" lon="2.00342">
        <ele>240.3</ele>
        <time>2015-05-25T08:33:25.000Z</time>
      </trkpt>
      <trkpt lat="44.27195" lon="2.00348">
        <ele>239.6</ele>
        <time>2015-05-25T08:33:33.000Z</time>
      </trkpt>
      <trkpt lat="44.27197" lon="2.00347">
        <ele>239.4</ele>
        <time>2015-05-25T08:33:39.000Z</time>
      </trkpt>
      <trkpt lat="44.27198" lon="2.00345">
        <ele>239.1</ele>
        <time>2015-05-25T08:33:43.000Z</time>
      </trkpt>
      <trkpt lat="44.27207" lon="2.00345">
        <ele>238.6</ele>
        <time>2015-05-25T08:33:50.000Z</time>
      </trkpt>
      <trkpt lat="44.27214" lon="2.00348">
        <ele>238.6</ele>
        <time>2015-05-25T08:33:55.000Z</time>
      </trkpt>
      <trkpt lat="44.27222" lon="2.00352">
        <ele>238.7</ele>
        <time>2015-05-25T08:34:03.000Z</time>
      </trkpt>
      <trkpt lat="44.27223" lon="2.00353">
        <ele>238.7</ele>
        <time>2015-05-25T08:34:04.000Z</time>
      </trkpt>
      <trkpt lat="44.27226" lon="2.00355">
        <ele>238.7</ele>
        <time>2015-05-25T08:34:15.000Z</time>
      </trkpt>
      <trkpt lat="44.27225" lon="2.00355">
        <ele>238.8</ele>
        <time>2015-05-25T08:34:16.000Z</time>
      </trkpt>
      <trkpt lat="44.27215" lon="2.00354">
        <ele>239.3</ele>
        <time>2015-05-25T08:34:22.000Z</time>
      </trkpt>
      <trkpt lat="44.27206" lon="2.0035">
        <ele>239.2</ele>
        <time>2015-05-25T08:34:28.000Z</time>
      </trkpt>
      <trkpt lat="44.27202" lon="2.00346">
        <ele>239</ele>
        <time>2015-05-25T08:34:33.000Z</time>
      </trkpt>
      <trkpt lat="44.27199" lon="2.00345">
        <ele>239</ele>
        <time>2015-05-25T08:34:35.000Z</time>
      </trkpt>
      <trkpt lat="44.27202" lon="2.00352">
        <ele>239.6</ele>
        <time>2015-05-25T08:34:41.000Z</time>
      </trkpt>
      <trkpt lat="44.27203" lon="2.00352">
        <ele>239.6</ele>
        <time>2015-05-25T08:34:42.000Z</time>
      </trkpt>
      <trkpt lat="44.27214" lon="2.00359">
        <ele>240</ele>
        <time>2015-05-25T08:34:50.000Z</time>
      </trkpt>
      <trkpt lat="44.27218" lon="2.00361">
        <ele>240.2</ele>
        <time>2015-05-25T08:34:52.000Z</time>
      </trkpt>
      <trkpt lat="44.27222" lon="2.00364">
        <ele>240.2</ele>
        <time>2015-05-25T08:34:56.000Z</time>
      </trkpt>
      <trkpt lat="44.27234" lon="2.0037">
        <ele>239.3</ele>
        <time>2015-05-25T08:35:03.000Z</time>
      </trkpt>
      <trkpt lat="44.27241" lon="2.00377">
        <ele>239.6</ele>
        <time>2015-05-25T08:35:09.000Z</time>
      </trkpt>
      <trkpt lat="44.27245" lon="2.0038">
        <ele>239.7</ele>
        <time>2015-05-25T08:35:13.000Z</time>
      </trkpt>
      <trkpt lat="44.27251" lon="2.00385">
        <ele>240.2</ele>
        <time>2015-05-25T08:35:19.000Z</time>
      </trkpt>
      <trkpt lat="44.27262" lon="2.00393">
        <ele>239.6</ele>
        <time>2015-05-25T08:35:27.000Z</time>
      </trkpt>
      <trkpt lat="44.27273" lon="2.004">
        <ele>239.4</ele>
        <time>2015-05-25T08:35:34.000Z</time>
      </trkpt>
      <trkpt lat="44.27285" lon="2.00409">
        <ele>239.6</ele>
        <time>2015-05-25T08:35:43.000Z</time>
      </trkpt>
      <trkpt lat="44.27287" lon="2.00412">
        <ele>239.8</ele>
        <time>2015-05-25T08:35:45.000Z</time>
      </trkpt>
      <trkpt lat="44.2729" lon="2.00422">
        <ele>241</ele>
        <time>2015-05-25T08:35:51.000Z</time>
      </trkpt>
      <trkpt lat="44.27289" lon="2.00436">
        <ele>242.6</ele>
        <time>2015-05-25T08:35:58.000Z</time>
      </trkpt>
      <trkpt lat="44.27281" lon="2.00442">
        <ele>243.6</ele>
        <time>2015-05-25T08:36:04.000Z</time>
      </trkpt>
      <trkpt lat="44.27273" lon="2.00438">
        <ele>243.9</ele>
        <time>2015-05-25T08:36:10.000Z</time>
      </trkpt>
      <trkpt lat="44.27267" lon="2.00434">
        <ele>244</ele>
        <time>2015-05-25T08:36:15.000Z</time>
      </trkpt>
      <trkpt lat="44.27259" lon="2.00427">
        <ele>243.5</ele>
        <time>2015-05-25T08:36:22.000Z</time>
      </trkpt>
      <trkpt lat="44.27249" lon="2.00418">
        <ele>242.2</ele>
        <time>2015-05-25T08:36:30.000Z</time>
      </trkpt>
      <trkpt lat="44.27243" lon="2.00414">
        <ele>241.7</ele>
        <time>2015-05-25T08:36:35.000Z</time>
      </trkpt>
      <trkpt lat="44.27234" lon="2.00406">
        <ele>241.5</ele>
        <time>2015-05-25T08:36:42.000Z</time>
      </trkpt>
      <trkpt lat="44.27229" lon="2.00405">
        <ele>241.5</ele>
        <time>2015-05-25T08:36:47.000Z</time>
      </trkpt>
      <trkpt lat="44.27221" lon="2.004">
        <ele>241.6</ele>
        <time>2015-05-25T08:36:53.000Z</time>
      </trkpt>
      <trkpt lat="44.27216" lon="2.00398">
        <ele>241.6</ele>
        <time>2015-05-25T08:36:59.000Z</time>
      </trkpt>
      <trkpt lat="44.27216" lon="2.00399">
        <ele>241.6</ele>
        <time>2015-05-25T08:37:01.000Z</time>
      </trkpt>
      <trkpt lat="44.27215" lon="2.00398">
        <ele>241.6</ele>
        <time>2015-05-25T08:37:05.000Z</time>
      </trkpt>
      <trkpt lat="44.27208" lon="2.00391">
        <ele>241.9</ele>
        <time>2015-05-25T08:37:12.000Z</time>
      </trkpt>
      <trkpt lat="44.27204" lon="2.00388">
        <ele>241.9</ele>
        <time>2015-05-25T08:37:15.000Z</time>
      </trkpt>
      <trkpt lat="44.27198" lon="2.00389">
        <ele>242</ele>
        <time>2015-05-25T08:37:22.000Z</time>
      </trkpt>
      <trkpt lat="44.27194" lon="2.00389">
        <ele>242</ele>
        <time>2015-05-25T08:37:35.000Z</time>
      </trkpt>
      <trkpt lat="44.27196" lon="2.00389">
        <ele>242</ele>
        <time>2015-05-25T08:37:47.000Z</time>
      </trkpt>
      <trkpt lat="44.27194" lon="2.00391">
        <ele>241.9</ele>
        <time>2015-05-25T08:37:51.000Z</time>
      </trkpt>
      <trkpt lat="44.27189" lon="2.00393">
        <ele>242.5</ele>
        <time>2015-05-25T08:37:56.000Z</time>
      </trkpt>
      <trkpt lat="44.27184" lon="2.00394">
        <ele>243.1</ele>
        <time>2015-05-25T08:38:03.000Z</time>
      </trkpt>
      <trkpt lat="44.27178" lon="2.00392">
        <ele>244</ele>
        <time>2015-05-25T08:38:10.000Z</time>
      </trkpt>
      <trkpt lat="44.27173" lon="2.00392">
        <ele>244.6</ele>
        <time>2015-05-25T08:38:16.000Z</time>
      </trkpt>
      <trkpt lat="44.27169" lon="2.00391">
        <ele>245</ele>
        <time>2015-05-25T08:38:22.000Z</time>
      </trkpt>
      <trkpt lat="44.27161" lon="2.00391">
        <ele>246.6</ele>
        <time>2015-05-25T08:38:29.000Z</time>
      </trkpt>
      <trkpt lat="44.27158" lon="2.00391">
        <ele>247.3</ele>
        <time>2015-05-25T08:38:33.000Z</time>
      </trkpt>
      <trkpt lat="44.27151" lon="2.00389">
        <ele>248.5</ele>
        <time>2015-05-25T08:38:40.000Z</time>
      </trkpt>
      <trkpt lat="44.27146" lon="2.00389">
        <ele>249.4</ele>
        <time>2015-05-25T08:38:45.000Z</time>
      </trkpt>
      <trkpt lat="44.27142" lon="2.00388">
        <ele>249.9</ele>
        <time>2015-05-25T08:38:50.000Z</time>
      </trkpt>
      <trkpt lat="44.27138" lon="2.00388">
        <ele>251.1</ele>
        <time>2015-05-25T08:38:54.000Z</time>
      </trkpt>
      <trkpt lat="44.27132" lon="2.00386">
        <ele>252.5</ele>
        <time>2015-05-25T08:39:01.000Z</time>
      </trkpt>
      <trkpt lat="44.27132" lon="2.00388">
        <ele>253.2</ele>
        <time>2015-05-25T08:39:09.000Z</time>
      </trkpt>
      <trkpt lat="44.27134" lon="2.00389">
        <ele>252.8</ele>
        <time>2015-05-25T08:39:35.000Z</time>
      </trkpt>
      <trkpt lat="44.2714" lon="2.00389">
        <ele>250.6</ele>
        <time>2015-05-25T08:39:44.000Z</time>
      </trkpt>
      <trkpt lat="44.27142" lon="2.00388">
        <ele>250</ele>
        <time>2015-05-25T08:39:46.000Z</time>
      </trkpt>
      <trkpt lat="44.27145" lon="2.00388">
        <ele>249.5</ele>
        <time>2015-05-25T08:39:49.000Z</time>
      </trkpt>
      <trkpt lat="44.2715" lon="2.00387">
        <ele>248.3</ele>
        <time>2015-05-25T08:39:56.000Z</time>
      </trkpt>
      <trkpt lat="44.27156" lon="2.00387">
        <ele>246.9</ele>
        <time>2015-05-25T08:40:02.000Z</time>
      </trkpt>
      <trkpt lat="44.27165" lon="2.00388">
        <ele>245.3</ele>
        <time>2015-05-25T08:40:08.000Z</time>
      </trkpt>
      <trkpt lat="44.27172" lon="2.00387">
        <ele>244.3</ele>
        <time>2015-05-25T08:40:11.000Z</time>
      </trkpt>
      <trkpt lat="44.27174" lon="2.00385">
        <ele>243.9</ele>
        <time>2015-05-25T08:40:15.000Z</time>
      </trkpt>
      <trkpt lat="44.27179" lon="2.00384">
        <ele>243.4</ele>
        <time>2015-05-25T08:40:20.000Z</time>
      </trkpt>
      <trkpt lat="44.27184" lon="2.00384">
        <ele>242.9</ele>
        <time>2015-05-25T08:40:25.000Z</time>
      </trkpt>
      <trkpt lat="44.27186" lon="2.00385">
        <ele>242.7</ele>
        <time>2015-05-25T08:40:32.000Z</time>
      </trkpt>
      <trkpt lat="44.27183" lon="2.00389">
        <ele>243.2</ele>
        <time>2015-05-25T08:40:41.000Z</time>
      </trkpt>
      <trkpt lat="44.2718" lon="2.0039">
        <ele>243.6</ele>
        <time>2015-05-25T08:40:45.000Z</time>
      </trkpt>
      <trkpt lat="44.27177" lon="2.0039">
        <ele>243.9</ele>
        <time>2015-05-25T08:40:48.000Z</time>
      </trkpt>
      <trkpt lat="44.27176" lon="2.00391">
        <ele>244.1</ele>
        <time>2015-05-25T08:40:54.000Z</time>
      </trkpt>
      <trkpt lat="44.27184" lon="2.00387">
        <ele>243</ele>
        <time>2015-05-25T08:41:07.000Z</time>
      </trkpt>
      <trkpt lat="44.27186" lon="2.00388">
        <ele>242.9</ele>
        <time>2015-05-25T08:41:11.000Z</time>
      </trkpt>
      <trkpt lat="44.27183" lon="2.00388">
        <ele>243.1</ele>
        <time>2015-05-25T08:41:13.000Z</time>
      </trkpt>
      <trkpt lat="44.27176" lon="2.00388">
        <ele>244</ele>
        <time>2015-05-25T08:41:20.000Z</time>
      </trkpt>
      <trkpt lat="44.2717" lon="2.00388">
        <ele>244.5</ele>
        <time>2015-05-25T08:41:25.000Z</time>
      </trkpt>
      <trkpt lat="44.27169" lon="2.00388">
        <ele>244.6</ele>
        <time>2015-05-25T08:41:26.000Z</time>
      </trkpt>
      <trkpt lat="44.27164" lon="2.00389">
        <ele>245.5</ele>
        <time>2015-05-25T08:41:31.000Z</time>
      </trkpt>
      <trkpt lat="44.27164" lon="2.0039">
        <ele>245.7</ele>
        <time>2015-05-25T08:41:38.000Z</time>
      </trkpt>
      <trkpt lat="44.27166" lon="2.00393">
        <ele>245.8</ele>
        <time>2015-05-25T08:41:48.000Z</time>
      </trkpt>
      <trkpt lat="44.27164" lon="2.00394">
        <ele>246.3</ele>
        <time>2015-05-25T08:41:55.000Z</time>
      </trkpt>
      <trkpt lat="44.27162" lon="2.00392">
        <ele>246.5</ele>
        <time>2015-05-25T08:42:18.000Z</time>
      </trkpt>
      <trkpt lat="44.2716" lon="2.00389">
        <ele>246.5</ele>
        <time>2015-05-25T08:42:39.000Z</time>
      </trkpt>
      <trkpt lat="44.27156" lon="2.00384">
        <ele>246.6</ele>
        <time>2015-05-25T08:43:04.000Z</time>
      </trkpt>
      <trkpt lat="44.27151" lon="2.00386">
        <ele>247.6</ele>
        <time>2015-05-25T08:43:12.000Z</time>
      </trkpt>
      <trkpt lat="44.27146" lon="2.00387">
        <ele>248.8</ele>
        <time>2015-05-25T08:43:18.000Z</time>
      </trkpt>
      <trkpt lat="44.27145" lon="2.00386">
        <ele>249</ele>
        <time>2015-05-25T08:43:20.000Z</time>
      </trkpt>
      <trkpt lat="44.27138" lon="2.00385">
        <ele>250.2</ele>
        <time>2015-05-25T08:43:29.000Z</time>
      </trkpt>
      <trkpt lat="44.27135" lon="2.00386">
        <ele>251.2</ele>
        <time>2015-05-25T08:43:32.000Z</time>
      </trkpt>
      <trkpt lat="44.27129" lon="2.00385">
        <ele>253</ele>
        <time>2015-05-25T08:43:39.000Z</time>
      </trkpt>
      <trkpt lat="44.27126" lon="2.00385">
        <ele>253.9</ele>
        <time>2015-05-25T08:43:43.000Z</time>
      </trkpt>
      <trkpt lat="44.27121" lon="2.00383">
        <ele>254.4</ele>
        <time>2015-05-25T08:43:50.000Z</time>
      </trkpt>
      <trkpt lat="44.27115" lon="2.00381">
        <ele>255.2</ele>
        <time>2015-05-25T08:43:58.000Z</time>
      </trkpt>
      <trkpt lat="44.27108" lon="2.00381">
        <ele>257.6</ele>
        <time>2015-05-25T08:44:06.000Z</time>
      </trkpt>
      <trkpt lat="44.27105" lon="2.00381">
        <ele>258.3</ele>
        <time>2015-05-25T08:44:09.000Z</time>
      </trkpt>
      <trkpt lat="44.27098" lon="2.0038">
        <ele>259.8</ele>
        <time>2015-05-25T08:44:17.000Z</time>
      </trkpt>
      <trkpt lat="44.2709" lon="2.00378">
        <ele>261.3</ele>
        <time>2015-05-25T08:44:26.000Z</time>
      </trkpt>
      <trkpt lat="44.27088" lon="2.00377">
        <ele>261.3</ele>
        <time>2015-05-25T08:44:28.000Z</time>
      </trkpt>
      <trkpt lat="44.27084" lon="2.00376">
        <ele>261.8</ele>
        <time>2015-05-25T08:44:33.000Z</time>
      </trkpt>
      <trkpt lat="44.27076" lon="2.00374">
        <ele>263.4</ele>
        <time>2015-05-25T08:44:41.000Z</time>
      </trkpt>
      <trkpt lat="44.2707" lon="2.00373">
        <ele>265.1</ele>
        <time>2015-05-25T08:44:47.000Z</time>
      </trkpt>
      <trkpt lat="44.27067" lon="2.00374">
        <ele>266.3</ele>
        <time>2015-05-25T08:44:50.000Z</time>
      </trkpt>
      <trkpt lat="44.27063" lon="2.00373">
        <ele>267</ele>
        <time>2015-05-25T08:44:56.000Z</time>
      </trkpt>
      <trkpt lat="44.2706" lon="2.00374">
        <ele>268.8</ele>
        <time>2015-05-25T08:44:59.000Z</time>
      </trkpt>
      <trkpt lat="44.27056" lon="2.00374">
        <ele>270.3</ele>
        <time>2015-05-25T08:45:03.000Z</time>
      </trkpt>
      <trkpt lat="44.27051" lon="2.00372">
        <ele>270.8</ele>
        <time>2015-05-25T08:45:11.000Z</time>
      </trkpt>
      <trkpt lat="44.27048" lon="2.00371">
        <ele>271.2</ele>
        <time>2015-05-25T08:45:15.000Z</time>
      </trkpt>
      <trkpt lat="44.27043" lon="2.0037">
        <ele>272.5</ele>
        <time>2015-05-25T08:45:20.000Z</time>
      </trkpt>
      <trkpt lat="44.27035" lon="2.00367">
        <ele>273.2</ele>
        <time>2015-05-25T08:45:28.000Z</time>
      </trkpt>
      <trkpt lat="44.27034" lon="2.00367">
        <ele>273.5</ele>
        <time>2015-05-25T08:45:29.000Z</time>
      </trkpt>
      <trkpt lat="44.27028" lon="2.00367">
        <ele>275.4</ele>
        <time>2015-05-25T08:45:36.000Z</time>
      </trkpt>
      <trkpt lat="44.27026" lon="2.00366">
        <ele>275.5</ele>
        <time>2015-05-25T08:45:39.000Z</time>
      </trkpt>
      <trkpt lat="44.27025" lon="2.00365">
        <ele>275.5</ele>
        <time>2015-05-25T08:45:41.000Z</time>
      </trkpt>
      <trkpt lat="44.27017" lon="2.00361">
        <ele>275.7</ele>
        <time>2015-05-25T08:45:49.000Z</time>
      </trkpt>
      <trkpt lat="44.27013" lon="2.00363">
        <ele>277.5</ele>
        <time>2015-05-25T08:45:55.000Z</time>
      </trkpt>
      <trkpt lat="44.27008" lon="2.00364">
        <ele>279.2</ele>
        <time>2015-05-25T08:46:00.000Z</time>
      </trkpt>
      <trkpt lat="44.27007" lon="2.00364">
        <ele>279.6</ele>
        <time>2015-05-25T08:46:02.000Z</time>
      </trkpt>
      <trkpt lat="44.27004" lon="2.00363">
        <ele>280.1</ele>
        <time>2015-05-25T08:46:07.000Z</time>
      </trkpt>
      <trkpt lat="44.26999" lon="2.00363">
        <ele>280.9</ele>
        <time>2015-05-25T08:46:13.000Z</time>
      </trkpt>
      <trkpt lat="44.26995" lon="2.00363">
        <ele>282</ele>
        <time>2015-05-25T08:46:19.000Z</time>
      </trkpt>
      <trkpt lat="44.26994" lon="2.00363">
        <ele>282.1</ele>
        <time>2015-05-25T08:46:20.000Z</time>
      </trkpt>
      <trkpt lat="44.26989" lon="2.00362">
        <ele>282.8</ele>
        <time>2015-05-25T08:46:29.000Z</time>
      </trkpt>
      <trkpt lat="44.26985" lon="2.0036">
        <ele>283</ele>
        <time>2015-05-25T08:46:37.000Z</time>
      </trkpt>
      <trkpt lat="44.26978" lon="2.00361">
        <ele>284.8</ele>
        <time>2015-05-25T08:46:49.000Z</time>
      </trkpt>
      <trkpt lat="44.26974" lon="2.00362">
        <ele>286.1</ele>
        <time>2015-05-25T08:46:53.000Z</time>
      </trkpt>
      <trkpt lat="44.26967" lon="2.00364">
        <ele>288.2</ele>
        <time>2015-05-25T08:47:00.000Z</time>
      </trkpt>
      <trkpt lat="44.26964" lon="2.00363">
        <ele>288.6</ele>
        <time>2015-05-25T08:47:04.000Z</time>
      </trkpt>
      <trkpt lat="44.26956" lon="2.0036">
        <ele>289</ele>
        <time>2015-05-25T08:47:12.000Z</time>
      </trkpt>
      <trkpt lat="44.26948" lon="2.00359">
        <ele>290.4</ele>
        <time>2015-05-25T08:47:19.000Z</time>
      </trkpt>
      <trkpt lat="44.26941" lon="2.00359">
        <ele>291.3</ele>
        <time>2015-05-25T08:47:27.000Z</time>
      </trkpt>
      <trkpt lat="44.26936" lon="2.00359">
        <ele>292.1</ele>
        <time>2015-05-25T08:47:32.000Z</time>
      </trkpt>
      <trkpt lat="44.26933" lon="2.00361">
        <ele>293.4</ele>
        <time>2015-05-25T08:47:37.000Z</time>
      </trkpt>
      <trkpt lat="44.26929" lon="2.00362">
        <ele>293.9</ele>
        <time>2015-05-25T08:47:41.000Z</time>
      </trkpt>
      <trkpt lat="44.26923" lon="2.00365">
        <ele>295.6</ele>
        <time>2015-05-25T08:47:47.000Z</time>
      </trkpt>
      <trkpt lat="44.26919" lon="2.00369">
        <ele>297</ele>
        <time>2015-05-25T08:47:54.000Z</time>
      </trkpt>
      <trkpt lat="44.26918" lon="2.00369">
        <ele>297.2</ele>
        <time>2015-05-25T08:47:55.000Z</time>
      </trkpt>
      <trkpt lat="44.26915" lon="2.00375">
        <ele>298.6</ele>
        <time>2015-05-25T08:48:01.000Z</time>
      </trkpt>
      <trkpt lat="44.26912" lon="2.00379">
        <ele>299.5</ele>
        <time>2015-05-25T08:48:04.000Z</time>
      </trkpt>
      <trkpt lat="44.26911" lon="2.00382">
        <ele>300</ele>
        <time>2015-05-25T08:48:06.000Z</time>
      </trkpt>
      <trkpt lat="44.26906" lon="2.00391">
        <ele>301.7</ele>
        <time>2015-05-25T08:48:13.000Z</time>
      </trkpt>
      <trkpt lat="44.26903" lon="2.00401">
        <ele>303.9</ele>
        <time>2015-05-25T08:48:21.000Z</time>
      </trkpt>
      <trkpt lat="44.26903" lon="2.00404">
        <ele>304.4</ele>
        <time>2015-05-25T08:48:23.000Z</time>
      </trkpt>
      <trkpt lat="44.26901" lon="2.00411">
        <ele>306.1</ele>
        <time>2015-05-25T08:48:28.000Z</time>
      </trkpt>
      <trkpt lat="44.269" lon="2.00418">
        <ele>307.7</ele>
        <time>2015-05-25T08:48:34.000Z</time>
      </trkpt>
      <trkpt lat="44.269" lon="2.0042">
        <ele>307.9</ele>
        <time>2015-05-25T08:48:35.000Z</time>
      </trkpt>
      <trkpt lat="44.26901" lon="2.00425">
        <ele>309</ele>
        <time>2015-05-25T08:48:40.000Z</time>
      </trkpt>
      <trkpt lat="44.269" lon="2.00431">
        <ele>309.7</ele>
        <time>2015-05-25T08:48:45.000Z</time>
      </trkpt>
      <trkpt lat="44.26899" lon="2.0044">
        <ele>310.9</ele>
        <time>2015-05-25T08:48:53.000Z</time>
      </trkpt>
      <trkpt lat="44.26899" lon="2.00447">
        <ele>312.1</ele>
        <time>2015-05-25T08:48:59.000Z</time>
      </trkpt>
      <trkpt lat="44.26899" lon="2.00448">
        <ele>312.3</ele>
        <time>2015-05-25T08:49:00.000Z</time>
      </trkpt>
      <trkpt lat="44.269" lon="2.00454">
        <ele>313.8</ele>
        <time>2015-05-25T08:49:06.000Z</time>
      </trkpt>
      <trkpt lat="44.26903" lon="2.00454">
        <ele>314.8</ele>
        <time>2015-05-25T08:49:12.000Z</time>
      </trkpt>
      <trkpt lat="44.26903" lon="2.00454">
        <ele>314.9</ele>
        <time>2015-05-25T08:49:22.000Z</time>
      </trkpt>
      <trkpt lat="44.26908" lon="2.00451">
        <ele>316.1</ele>
        <time>2015-05-25T08:49:31.000Z</time>
      </trkpt>
      <trkpt lat="44.26907" lon="2.0045">
        <ele>315.8</ele>
        <time>2015-05-25T08:50:27.000Z</time>
      </trkpt>
      <trkpt lat="44.26908" lon="2.0045">
        <ele>316</ele>
        <time>2015-05-25T08:50:54.000Z</time>
      </trkpt>
      <trkpt lat="44.26916" lon="2.00445">
        <ele>318.1</ele>
        <time>2015-05-25T08:51:01.000Z</time>
      </trkpt>
      <trkpt lat="44.26922" lon="2.00442">
        <ele>318.3</ele>
        <time>2015-05-25T08:51:06.000Z</time>
      </trkpt>
      <trkpt lat="44.2693" lon="2.00441">
        <ele>318.9</ele>
        <time>2015-05-25T08:51:13.000Z</time>
      </trkpt>
      <trkpt lat="44.26937" lon="2.00441">
        <ele>319.8</ele>
        <time>2015-05-25T08:51:19.000Z</time>
      </trkpt>
      <trkpt lat="44.26941" lon="2.0044">
        <ele>320.1</ele>
        <time>2015-05-25T08:51:22.000Z</time>
      </trkpt>
      <trkpt lat="44.26951" lon="2.00444">
        <ele>322</ele>
        <time>2015-05-25T08:51:32.000Z</time>
      </trkpt>
      <trkpt lat="44.26957" lon="2.00447">
        <ele>322.5</ele>
        <time>2015-05-25T08:51:38.000Z</time>
      </trkpt>
      <trkpt lat="44.26963" lon="2.00449">
        <ele>323.3</ele>
        <time>2015-05-25T08:51:43.000Z</time>
      </trkpt>
      <trkpt lat="44.26969" lon="2.00452">
        <ele>324.2</ele>
        <time>2015-05-25T08:51:49.000Z</time>
      </trkpt>
      <trkpt lat="44.26972" lon="2.00455">
        <ele>325</ele>
        <time>2015-05-25T08:51:52.000Z</time>
      </trkpt>
      <trkpt lat="44.26976" lon="2.00458">
        <ele>325.7</ele>
        <time>2015-05-25T08:51:58.000Z</time>
      </trkpt>
      <trkpt lat="44.26981" lon="2.00465">
        <ele>327.2</ele>
        <time>2015-05-25T08:52:04.000Z</time>
      </trkpt>
      <trkpt lat="44.26982" lon="2.00467">
        <ele>327.9</ele>
        <time>2015-05-25T08:52:10.000Z</time>
      </trkpt>
      <trkpt lat="44.2698" lon="2.00465">
        <ele>327.5</ele>
        <time>2015-05-25T08:52:15.000Z</time>
      </trkpt>
      <trkpt lat="44.26979" lon="2.00467">
        <ele>328.2</ele>
        <time>2015-05-25T08:52:38.000Z</time>
      </trkpt>
      <trkpt lat="44.2698" lon="2.00469">
        <ele>328.6</ele>
        <time>2015-05-25T08:52:44.000Z</time>
      </trkpt>
      <trkpt lat="44.2698" lon="2.00469">
        <ele>328.7</ele>
        <time>2015-05-25T08:52:46.000Z</time>
      </trkpt>
      <trkpt lat="44.26984" lon="2.00471">
        <ele>329.1</ele>
        <time>2015-05-25T08:52:51.000Z</time>
      </trkpt>
      <trkpt lat="44.26986" lon="2.00473">
        <ele>329.6</ele>
        <time>2015-05-25T08:52:59.000Z</time>
      </trkpt>
      <trkpt lat="44.2699" lon="2.00476">
        <ele>330.2</ele>
        <time>2015-05-25T08:53:05.000Z</time>
      </trkpt>
      <trkpt lat="44.26993" lon="2.00476">
        <ele>330.1</ele>
        <time>2015-05-25T08:53:15.000Z</time>
      </trkpt>
      <trkpt lat="44.26995" lon="2.00484">
        <ele>331.5</ele>
        <time>2015-05-25T08:53:49.000Z</time>
      </trkpt>
      <trkpt lat="44.26994" lon="2.00491">
        <ele>332.8</ele>
        <time>2015-05-25T08:53:56.000Z</time>
      </trkpt>
      <trkpt lat="44.26993" lon="2.00498">
        <ele>334.3</ele>
        <time>2015-05-25T08:54:02.000Z</time>
      </trkpt>
      <trkpt lat="44.26993" lon="2.00501">
        <ele>334.9</ele>
        <time>2015-05-25T08:54:04.000Z</time>
      </trkpt>
      <trkpt lat="44.26996" lon="2.00507">
        <ele>335.4</ele>
        <time>2015-05-25T08:54:11.000Z</time>
      </trkpt>
      <trkpt lat="44.26996" lon="2.00511">
        <ele>335.9</ele>
        <time>2015-05-25T08:54:15.000Z</time>
      </trkpt>
      <trkpt lat="44.26994" lon="2.00516">
        <ele>336.8</ele>
        <time>2015-05-25T08:54:21.000Z</time>
      </trkpt>
      <trkpt lat="44.26993" lon="2.00518">
        <ele>337.4</ele>
        <time>2015-05-25T08:54:25.000Z</time>
      </trkpt>
      <trkpt lat="44.26989" lon="2.00519">
        <ele>338.4</ele>
        <time>2015-05-25T08:54:31.000Z</time>
      </trkpt>
      <trkpt lat="44.26986" lon="2.00523">
        <ele>339.7</ele>
        <time>2015-05-25T08:54:36.000Z</time>
      </trkpt>
      <trkpt lat="44.26982" lon="2.00526">
        <ele>341.1</ele>
        <time>2015-05-25T08:54:43.000Z</time>
      </trkpt>
      <trkpt lat="44.26978" lon="2.00527">
        <ele>342.4</ele>
        <time>2015-05-25T08:54:47.000Z</time>
      </trkpt>
      <trkpt lat="44.26973" lon="2.00531">
        <ele>344.5</ele>
        <time>2015-05-25T08:54:54.000Z</time>
      </trkpt>
      <trkpt lat="44.2697" lon="2.00539">
        <ele>345.8</ele>
        <time>2015-05-25T08:55:02.000Z</time>
      </trkpt>
      <trkpt lat="44.26969" lon="2.00544">
        <ele>346.8</ele>
        <time>2015-05-25T08:55:07.000Z</time>
      </trkpt>
      <trkpt lat="44.26968" lon="2.00549">
        <ele>347.4</ele>
        <time>2015-05-25T08:55:10.000Z</time>
      </trkpt>
      <trkpt lat="44.26967" lon="2.00554">
        <ele>348.3</ele>
        <time>2015-05-25T08:55:15.000Z</time>
      </trkpt>
      <trkpt lat="44.26963" lon="2.00564">
        <ele>349.7</ele>
        <time>2015-05-25T08:55:23.000Z</time>
      </trkpt>
      <trkpt lat="44.26962" lon="2.00568">
        <ele>350.3</ele>
        <time>2015-05-25T08:55:26.000Z</time>
      </trkpt>
      <trkpt lat="44.26959" lon="2.00576">
        <ele>351.4</ele>
        <time>2015-05-25T08:55:35.000Z</time>
      </trkpt>
      <trkpt lat="44.26959" lon="2.00583">
        <ele>352.5</ele>
        <time>2015-05-25T08:55:42.000Z</time>
      </trkpt>
      <trkpt lat="44.26959" lon="2.00589">
        <ele>353.3</ele>
        <time>2015-05-25T08:55:47.000Z</time>
      </trkpt>
      <trkpt lat="44.26959" lon="2.00593">
        <ele>353.7</ele>
        <time>2015-05-25T08:55:50.000Z</time>
      </trkpt>
      <trkpt lat="44.26957" lon="2.00596">
        <ele>354.1</ele>
        <time>2015-05-25T08:55:52.000Z</time>
      </trkpt>
      <trkpt lat="44.26956" lon="2.00602">
        <ele>354.8</ele>
        <time>2015-05-25T08:55:58.000Z</time>
      </trkpt>
      <trkpt lat="44.26955" lon="2.00603">
        <ele>354.9</ele>
        <time>2015-05-25T08:55:59.000Z</time>
      </trkpt>
      <trkpt lat="44.26953" lon="2.00612">
        <ele>356.1</ele>
        <time>2015-05-25T08:56:07.000Z</time>
      </trkpt>
      <trkpt lat="44.26952" lon="2.00622">
        <ele>357</ele>
        <time>2015-05-25T08:56:14.000Z</time>
      </trkpt>
      <trkpt lat="44.26949" lon="2.00633">
        <ele>358.6</ele>
        <time>2015-05-25T08:56:23.000Z</time>
      </trkpt>
      <trkpt lat="44.26948" lon="2.00642">
        <ele>359.7</ele>
        <time>2015-05-25T08:56:30.000Z</time>
      </trkpt>
      <trkpt lat="44.26948" lon="2.00647">
        <ele>360</ele>
        <time>2015-05-25T08:56:36.000Z</time>
      </trkpt>
      <trkpt lat="44.26948" lon="2.00646">
        <ele>360</ele>
        <time>2015-05-25T08:56:39.000Z</time>
      </trkpt>
      <trkpt lat="44.26946" lon="2.00653">
        <ele>361.2</ele>
        <time>2015-05-25T08:56:46.000Z</time>
      </trkpt>
      <trkpt lat="44.26944" lon="2.00656">
        <ele>361.7</ele>
        <time>2015-05-25T08:56:51.000Z</time>
      </trkpt>
      <trkpt lat="44.26941" lon="2.00662">
        <ele>361.5</ele>
        <time>2015-05-25T08:56:56.000Z</time>
      </trkpt>
      <trkpt lat="44.2694" lon="2.00669">
        <ele>362</ele>
        <time>2015-05-25T08:57:02.000Z</time>
      </trkpt>
      <trkpt lat="44.26938" lon="2.00674">
        <ele>361.8</ele>
        <time>2015-05-25T08:57:08.000Z</time>
      </trkpt>
      <trkpt lat="44.26934" lon="2.0068">
        <ele>361.6</ele>
        <time>2015-05-25T08:57:13.000Z</time>
      </trkpt>
      <trkpt lat="44.26931" lon="2.00684">
        <ele>361.7</ele>
        <time>2015-05-25T08:57:18.000Z</time>
      </trkpt>
      <trkpt lat="44.26929" lon="2.00688">
        <ele>362</ele>
        <time>2015-05-25T08:57:21.000Z</time>
      </trkpt>
      <trkpt lat="44.26925" lon="2.007">
        <ele>363.9</ele>
        <time>2015-05-25T08:57:29.000Z</time>
      </trkpt>
      <trkpt lat="44.26924" lon="2.00708">
        <ele>365.4</ele>
        <time>2015-05-25T08:57:34.000Z</time>
      </trkpt>
      <trkpt lat="44.26923" lon="2.0071">
        <ele>365.9</ele>
        <time>2015-05-25T08:57:36.000Z</time>
      </trkpt>
      <trkpt lat="44.26923" lon="2.00713">
        <ele>366.4</ele>
        <time>2015-05-25T08:57:38.000Z</time>
      </trkpt>
      <trkpt lat="44.2692" lon="2.00723">
        <ele>368.6</ele>
        <time>2015-05-25T08:57:46.000Z</time>
      </trkpt>
      <trkpt lat="44.26918" lon="2.00727">
        <ele>369.4</ele>
        <time>2015-05-25T08:57:49.000Z</time>
      </trkpt>
      <trkpt lat="44.26917" lon="2.00729">
        <ele>369.7</ele>
        <time>2015-05-25T08:57:52.000Z</time>
      </trkpt>
      <trkpt lat="44.26914" lon="2.00737">
        <ele>369.9</ele>
        <time>2015-05-25T08:57:59.000Z</time>
      </trkpt>
      <trkpt lat="44.26914" lon="2.00739">
        <ele>370.1</ele>
        <time>2015-05-25T08:58:00.000Z</time>
      </trkpt>
      <trkpt lat="44.26911" lon="2.00748">
        <ele>370.9</ele>
        <time>2015-05-25T08:58:07.000Z</time>
      </trkpt>
      <trkpt lat="44.26908" lon="2.00756">
        <ele>371.5</ele>
        <time>2015-05-25T08:58:14.000Z</time>
      </trkpt>
      <trkpt lat="44.26906" lon="2.00761">
        <ele>371.9</ele>
        <time>2015-05-25T08:58:18.000Z</time>
      </trkpt>
      <trkpt lat="44.26902" lon="2.00769">
        <ele>373.1</ele>
        <time>2015-05-25T08:58:24.000Z</time>
      </trkpt>
      <trkpt lat="44.26901" lon="2.00779">
        <ele>374.7</ele>
        <time>2015-05-25T08:58:31.000Z</time>
      </trkpt>
      <trkpt lat="44.26899" lon="2.00784">
        <ele>375.6</ele>
        <time>2015-05-25T08:58:35.000Z</time>
      </trkpt>
      <trkpt lat="44.26896" lon="2.00789">
        <ele>376.3</ele>
        <time>2015-05-25T08:58:40.000Z</time>
      </trkpt>
      <trkpt lat="44.26894" lon="2.00796">
        <ele>377.5</ele>
        <time>2015-05-25T08:58:47.000Z</time>
      </trkpt>
      <trkpt lat="44.26894" lon="2.00799">
        <ele>377.8</ele>
        <time>2015-05-25T08:58:49.000Z</time>
      </trkpt>
      <trkpt lat="44.26892" lon="2.00808">
        <ele>379.1</ele>
        <time>2015-05-25T08:58:57.000Z</time>
      </trkpt>
      <trkpt lat="44.26892" lon="2.00812">
        <ele>379.4</ele>
        <time>2015-05-25T08:59:00.000Z</time>
      </trkpt>
      <trkpt lat="44.2689" lon="2.00818">
        <ele>379.9</ele>
        <time>2015-05-25T08:59:09.000Z</time>
      </trkpt>
      <trkpt lat="44.26887" lon="2.00825">
        <ele>380</ele>
        <time>2015-05-25T08:59:14.000Z</time>
      </trkpt>
      <trkpt lat="44.26887" lon="2.00828">
        <ele>380.1</ele>
        <time>2015-05-25T08:59:18.000Z</time>
      </trkpt>
      <trkpt lat="44.26884" lon="2.00837">
        <ele>380.7</ele>
        <time>2015-05-25T08:59:25.000Z</time>
      </trkpt>
      <trkpt lat="44.26884" lon="2.00838">
        <ele>380.9</ele>
        <time>2015-05-25T08:59:27.000Z</time>
      </trkpt>
      <trkpt lat="44.2688" lon="2.00848">
        <ele>381.9</ele>
        <time>2015-05-25T08:59:35.000Z</time>
      </trkpt>
      <trkpt lat="44.26879" lon="2.00858">
        <ele>383.4</ele>
        <time>2015-05-25T08:59:41.000Z</time>
      </trkpt>
      <trkpt lat="44.26878" lon="2.00861">
        <ele>383.8</ele>
        <time>2015-05-25T08:59:43.000Z</time>
      </trkpt>
      <trkpt lat="44.26875" lon="2.00867">
        <ele>384.5</ele>
        <time>2015-05-25T08:59:48.000Z</time>
      </trkpt>
      <trkpt lat="44.2687" lon="2.00877">
        <ele>385.8</ele>
        <time>2015-05-25T08:59:56.000Z</time>
      </trkpt>
      <trkpt lat="44.26869" lon="2.00878">
        <ele>386</ele>
        <time>2015-05-25T08:59:57.000Z</time>
      </trkpt>
      <trkpt lat="44.26865" lon="2.0088">
        <ele>386.2</ele>
        <time>2015-05-25T09:00:02.000Z</time>
      </trkpt>
      <trkpt lat="44.26864" lon="2.00882">
        <ele>386.7</ele>
        <time>2015-05-25T09:00:05.000Z</time>
      </trkpt>
      <trkpt lat="44.26861" lon="2.00888">
        <ele>387.8</ele>
        <time>2015-05-25T09:00:11.000Z</time>
      </trkpt>
      <trkpt lat="44.26857" lon="2.00896">
        <ele>388.5</ele>
        <time>2015-05-25T09:00:19.000Z</time>
      </trkpt>
      <trkpt lat="44.26855" lon="2.00899">
        <ele>388.7</ele>
        <time>2015-05-25T09:00:22.000Z</time>
      </trkpt>
      <trkpt lat="44.26852" lon="2.00904">
        <ele>389.2</ele>
        <time>2015-05-25T09:00:28.000Z</time>
      </trkpt>
      <trkpt lat="44.26849" lon="2.0091">
        <ele>390</ele>
        <time>2015-05-25T09:00:35.000Z</time>
      </trkpt>
      <trkpt lat="44.26845" lon="2.00915">
        <ele>390.8</ele>
        <time>2015-05-25T09:00:41.000Z</time>
      </trkpt>
      <trkpt lat="44.26844" lon="2.00918">
        <ele>391.2</ele>
        <time>2015-05-25T09:00:46.000Z</time>
      </trkpt>
      <trkpt lat="44.2684" lon="2.00923">
        <ele>392</ele>
        <time>2015-05-25T09:00:52.000Z</time>
      </trkpt>
      <trkpt lat="44.26837" lon="2.00928">
        <ele>392.9</ele>
        <time>2015-05-25T09:00:58.000Z</time>
      </trkpt>
      <trkpt lat="44.26832" lon="2.00935">
        <ele>394.2</ele>
        <time>2015-05-25T09:01:04.000Z</time>
      </trkpt>
      <trkpt lat="44.2683" lon="2.00946">
        <ele>395.8</ele>
        <time>2015-05-25T09:01:12.000Z</time>
      </trkpt>
      <trkpt lat="44.26829" lon="2.00947">
        <ele>396</ele>
        <time>2015-05-25T09:01:13.000Z</time>
      </trkpt>
      <trkpt lat="44.26829" lon="2.00957">
        <ele>397.5</ele>
        <time>2015-05-25T09:01:20.000Z</time>
      </trkpt>
      <trkpt lat="44.26824" lon="2.00969">
        <ele>399.2</ele>
        <time>2015-05-25T09:01:27.000Z</time>
      </trkpt>
      <trkpt lat="44.26819" lon="2.0098">
        <ele>400.6</ele>
        <time>2015-05-25T09:01:34.000Z</time>
      </trkpt>
      <trkpt lat="44.26818" lon="2.00984">
        <ele>401.2</ele>
        <time>2015-05-25T09:01:37.000Z</time>
      </trkpt>
      <trkpt lat="44.26818" lon="2.00989">
        <ele>401.9</ele>
        <time>2015-05-25T09:01:42.000Z</time>
      </trkpt>
      <trkpt lat="44.26816" lon="2.00999">
        <ele>403.6</ele>
        <time>2015-05-25T09:01:50.000Z</time>
      </trkpt>
      <trkpt lat="44.26817" lon="2.01003">
        <ele>404</ele>
        <time>2015-05-25T09:01:56.000Z</time>
      </trkpt>
      <trkpt lat="44.26817" lon="2.01007">
        <ele>404.5</ele>
        <time>2015-05-25T09:02:08.000Z</time>
      </trkpt>
      <trkpt lat="44.26815" lon="2.01008">
        <ele>404.7</ele>
        <time>2015-05-25T09:02:10.000Z</time>
      </trkpt>
      <trkpt lat="44.26811" lon="2.01015">
        <ele>405.9</ele>
        <time>2015-05-25T09:02:16.000Z</time>
      </trkpt>
      <trkpt lat="44.26811" lon="2.01017">
        <ele>406.1</ele>
        <time>2015-05-25T09:02:17.000Z</time>
      </trkpt>
      <trkpt lat="44.26809" lon="2.01023">
        <ele>407.1</ele>
        <time>2015-05-25T09:02:22.000Z</time>
      </trkpt>
      <trkpt lat="44.26807" lon="2.01033">
        <ele>408.5</ele>
        <time>2015-05-25T09:02:29.000Z</time>
      </trkpt>
      <trkpt lat="44.26807" lon="2.01034">
        <ele>408.6</ele>
        <time>2015-05-25T09:02:30.000Z</time>
      </trkpt>
      <trkpt lat="44.26803" lon="2.01044">
        <ele>409.7</ele>
        <time>2015-05-25T09:02:37.000Z</time>
      </trkpt>
      <trkpt lat="44.26801" lon="2.01055">
        <ele>410.9</ele>
        <time>2015-05-25T09:02:45.000Z</time>
      </trkpt>
      <trkpt lat="44.268" lon="2.01057">
        <ele>411.1</ele>
        <time>2015-05-25T09:02:46.000Z</time>
      </trkpt>
      <trkpt lat="44.26799" lon="2.01067">
        <ele>412.3</ele>
        <time>2015-05-25T09:02:53.000Z</time>
      </trkpt>
      <trkpt lat="44.26796" lon="2.01072">
        <ele>413</ele>
        <time>2015-05-25T09:02:58.000Z</time>
      </trkpt>
      <trkpt lat="44.26795" lon="2.0108">
        <ele>414</ele>
        <time>2015-05-25T09:03:05.000Z</time>
      </trkpt>
      <trkpt lat="44.26794" lon="2.01081">
        <ele>414.1</ele>
        <time>2015-05-25T09:03:06.000Z</time>
      </trkpt>
      <trkpt lat="44.26793" lon="2.01086">
        <ele>414.7</ele>
        <time>2015-05-25T09:03:10.000Z</time>
      </trkpt>
      <trkpt lat="44.26789" lon="2.01096">
        <ele>416.3</ele>
        <time>2015-05-25T09:03:18.000Z</time>
      </trkpt>
      <trkpt lat="44.2679" lon="2.011">
        <ele>416.8</ele>
        <time>2015-05-25T09:03:25.000Z</time>
      </trkpt>
      <trkpt lat="44.2679" lon="2.01105">
        <ele>417.3</ele>
        <time>2015-05-25T09:03:31.000Z</time>
      </trkpt>
      <trkpt lat="44.26791" lon="2.01103">
        <ele>417</ele>
        <time>2015-05-25T09:03:42.000Z</time>
      </trkpt>
      <trkpt lat="44.26793" lon="2.01099">
        <ele>416.4</ele>
        <time>2015-05-25T09:03:48.000Z</time>
      </trkpt>
      <trkpt lat="44.26796" lon="2.01098">
        <ele>416.1</ele>
        <time>2015-05-25T09:03:55.000Z</time>
      </trkpt>
      <trkpt lat="44.26801" lon="2.01098">
        <ele>415.9</ele>
        <time>2015-05-25T09:04:00.000Z</time>
      </trkpt>
      <trkpt lat="44.26806" lon="2.011">
        <ele>415.7</ele>
        <time>2015-05-25T09:04:05.000Z</time>
      </trkpt>
      <trkpt lat="44.2681" lon="2.01101">
        <ele>415.1</ele>
        <time>2015-05-25T09:04:08.000Z</time>
      </trkpt>
      <trkpt lat="44.26813" lon="2.01102">
        <ele>414.4</ele>
        <time>2015-05-25T09:04:12.000Z</time>
      </trkpt>
      <trkpt lat="44.26819" lon="2.01106">
        <ele>413.6</ele>
        <time>2015-05-25T09:04:18.000Z</time>
      </trkpt>
      <trkpt lat="44.26827" lon="2.0111">
        <ele>412.4</ele>
        <time>2015-05-25T09:04:24.000Z</time>
      </trkpt>
      <trkpt lat="44.26828" lon="2.01111">
        <ele>412.2</ele>
        <time>2015-05-25T09:04:26.000Z</time>
      </trkpt>
      <trkpt lat="44.26832" lon="2.01106">
        <ele>410.9</ele>
        <time>2015-05-25T09:04:33.000Z</time>
      </trkpt>
      <trkpt lat="44.26833" lon="2.01103">
        <ele>410.4</ele>
        <time>2015-05-25T09:04:36.000Z</time>
      </trkpt>
      <trkpt lat="44.26838" lon="2.01092">
        <ele>409.6</ele>
        <time>2015-05-25T09:04:44.000Z</time>
      </trkpt>
      <trkpt lat="44.26838" lon="2.01084">
        <ele>408.9</ele>
        <time>2015-05-25T09:04:49.000Z</time>
      </trkpt>
      <trkpt lat="44.26838" lon="2.01081">
        <ele>408.6</ele>
        <time>2015-05-25T09:04:51.000Z</time>
      </trkpt>
      <trkpt lat="44.26838" lon="2.01072">
        <ele>407.9</ele>
        <time>2015-05-25T09:04:56.000Z</time>
      </trkpt>
      <trkpt lat="44.2684" lon="2.01067">
        <ele>407.4</ele>
        <time>2015-05-25T09:04:59.000Z</time>
      </trkpt>
      <trkpt lat="44.26846" lon="2.01058">
        <ele>406.3</ele>
        <time>2015-05-25T09:05:06.000Z</time>
      </trkpt>
      <trkpt lat="44.26853" lon="2.01051">
        <ele>405.3</ele>
        <time>2015-05-25T09:05:13.000Z</time>
      </trkpt>
      <trkpt lat="44.26855" lon="2.01048">
        <ele>404.9</ele>
        <time>2015-05-25T09:05:15.000Z</time>
      </trkpt>
      <trkpt lat="44.26864" lon="2.01039">
        <ele>404.2</ele>
        <time>2015-05-25T09:05:24.000Z</time>
      </trkpt>
      <trkpt lat="44.26866" lon="2.01037">
        <ele>404.3</ele>
        <time>2015-05-25T09:05:26.000Z</time>
      </trkpt>
      <trkpt lat="44.26871" lon="2.01032">
        <ele>404.4</ele>
        <time>2015-05-25T09:05:31.000Z</time>
      </trkpt>
      <trkpt lat="44.26874" lon="2.01028">
        <ele>404.4</ele>
        <time>2015-05-25T09:05:34.000Z</time>
      </trkpt>
      <trkpt lat="44.2688" lon="2.01026">
        <ele>404.9</ele>
        <time>2015-05-25T09:05:39.000Z</time>
      </trkpt>
      <trkpt lat="44.26888" lon="2.01019">
        <ele>405</ele>
        <time>2015-05-25T09:05:46.000Z</time>
      </trkpt>
      <trkpt lat="44.26895" lon="2.01011">
        <ele>405</ele>
        <time>2015-05-25T09:05:53.000Z</time>
      </trkpt>
      <trkpt lat="44.26898" lon="2.01009">
        <ele>405</ele>
        <time>2015-05-25T09:05:55.000Z</time>
      </trkpt>
      <trkpt lat="44.26906" lon="2.01005">
        <ele>405.5</ele>
        <time>2015-05-25T09:06:01.000Z</time>
      </trkpt>
      <trkpt lat="44.26909" lon="2.01002">
        <ele>405.5</ele>
        <time>2015-05-25T09:06:04.000Z</time>
      </trkpt>
      <trkpt lat="44.26915" lon="2.00997">
        <ele>405.5</ele>
        <time>2015-05-25T09:06:10.000Z</time>
      </trkpt>
      <trkpt lat="44.26919" lon="2.00993">
        <ele>405.3</ele>
        <time>2015-05-25T09:06:14.000Z</time>
      </trkpt>
      <trkpt lat="44.26928" lon="2.00986">
        <ele>404.9</ele>
        <time>2015-05-25T09:06:22.000Z</time>
      </trkpt>
      <trkpt lat="44.26935" lon="2.00981">
        <ele>404.6</ele>
        <time>2015-05-25T09:06:28.000Z</time>
      </trkpt>
      <trkpt lat="44.26944" lon="2.00976">
        <ele>404.4</ele>
        <time>2015-05-25T09:06:35.000Z</time>
      </trkpt>
      <trkpt lat="44.26948" lon="2.00974">
        <ele>404</ele>
        <time>2015-05-25T09:06:40.000Z</time>
      </trkpt>
      <trkpt lat="44.26954" lon="2.00965">
        <ele>402.8</ele>
        <time>2015-05-25T09:06:47.000Z</time>
      </trkpt>
      <trkpt lat="44.26954" lon="2.00961">
        <ele>402.3</ele>
        <time>2015-05-25T09:06:56.000Z</time>
      </trkpt>
      <trkpt lat="44.26957" lon="2.00955">
        <ele>401.6</ele>
        <time>2015-05-25T09:07:17.000Z</time>
      </trkpt>
      <trkpt lat="44.26965" lon="2.00948">
        <ele>401.1</ele>
        <time>2015-05-25T09:07:24.000Z</time>
      </trkpt>
      <trkpt lat="44.26972" lon="2.00947">
        <ele>401.1</ele>
        <time>2015-05-25T09:07:29.000Z</time>
      </trkpt>
      <trkpt lat="44.2698" lon="2.00947">
        <ele>400.1</ele>
        <time>2015-05-25T09:07:35.000Z</time>
      </trkpt>
      <trkpt lat="44.26984" lon="2.00947">
        <ele>399.5</ele>
        <time>2015-05-25T09:07:38.000Z</time>
      </trkpt>
      <trkpt lat="44.26991" lon="2.00945">
        <ele>398.4</ele>
        <time>2015-05-25T09:07:43.000Z</time>
      </trkpt>
      <trkpt lat="44.26999" lon="2.00946">
        <ele>397.3</ele>
        <time>2015-05-25T09:07:48.000Z</time>
      </trkpt>
      <trkpt lat="44.27002" lon="2.00947">
        <ele>396.7</ele>
        <time>2015-05-25T09:07:50.000Z</time>
      </trkpt>
      <trkpt lat="44.27006" lon="2.00948">
        <ele>396</ele>
        <time>2015-05-25T09:07:52.000Z</time>
      </trkpt>
      <trkpt lat="44.27013" lon="2.00953">
        <ele>394.8</ele>
        <time>2015-05-25T09:07:58.000Z</time>
      </trkpt>
      <trkpt lat="44.27018" lon="2.00962">
        <ele>393.9</ele>
        <time>2015-05-25T09:08:04.000Z</time>
      </trkpt>
      <trkpt lat="44.27024" lon="2.00973">
        <ele>392.9</ele>
        <time>2015-05-25T09:08:10.000Z</time>
      </trkpt>
      <trkpt lat="44.27027" lon="2.00979">
        <ele>392.4</ele>
        <time>2015-05-25T09:08:14.000Z</time>
      </trkpt>
      <trkpt lat="44.27029" lon="2.00991">
        <ele>392.3</ele>
        <time>2015-05-25T09:08:22.000Z</time>
      </trkpt>
      <trkpt lat="44.27033" lon="2.00998">
        <ele>390.7</ele>
        <time>2015-05-25T09:08:26.000Z</time>
      </trkpt>
      <trkpt lat="44.27039" lon="2.01004">
        <ele>388.8</ele>
        <time>2015-05-25T09:08:31.000Z</time>
      </trkpt>
      <trkpt lat="44.27039" lon="2.01016">
        <ele>388.8</ele>
        <time>2015-05-25T09:08:37.000Z</time>
      </trkpt>
      <trkpt lat="44.27041" lon="2.01021">
        <ele>388.3</ele>
        <time>2015-05-25T09:08:40.000Z</time>
      </trkpt>
      <trkpt lat="44.27041" lon="2.01024">
        <ele>388.2</ele>
        <time>2015-05-25T09:08:42.000Z</time>
      </trkpt>
      <trkpt lat="44.27044" lon="2.01033">
        <ele>387.5</ele>
        <time>2015-05-25T09:08:48.000Z</time>
      </trkpt>
      <trkpt lat="44.27047" lon="2.01049">
        <ele>386.8</ele>
        <time>2015-05-25T09:08:57.000Z</time>
      </trkpt>
      <trkpt lat="44.27046" lon="2.0106">
        <ele>387.6</ele>
        <time>2015-05-25T09:09:03.000Z</time>
      </trkpt>
      <trkpt lat="44.27049" lon="2.01067">
        <ele>386.6</ele>
        <time>2015-05-25T09:09:09.000Z</time>
      </trkpt>
      <trkpt lat="44.27052" lon="2.01063">
        <ele>385.2</ele>
        <time>2015-05-25T09:09:15.000Z</time>
      </trkpt>
      <trkpt lat="44.27052" lon="2.01054">
        <ele>384.5</ele>
        <time>2015-05-25T09:09:20.000Z</time>
      </trkpt>
      <trkpt lat="44.27055" lon="2.01044">
        <ele>383</ele>
        <time>2015-05-25T09:09:26.000Z</time>
      </trkpt>
      <trkpt lat="44.27055" lon="2.01041">
        <ele>382.5</ele>
        <time>2015-05-25T09:09:28.000Z</time>
      </trkpt>
      <trkpt lat="44.27056" lon="2.01031">
        <ele>381.7</ele>
        <time>2015-05-25T09:09:34.000Z</time>
      </trkpt>
      <trkpt lat="44.27057" lon="2.0103">
        <ele>381.5</ele>
        <time>2015-05-25T09:09:35.000Z</time>
      </trkpt>
      <trkpt lat="44.27057" lon="2.01025">
        <ele>381.2</ele>
        <time>2015-05-25T09:09:38.000Z</time>
      </trkpt>
      <trkpt lat="44.2706" lon="2.01019">
        <ele>380</ele>
        <time>2015-05-25T09:09:45.000Z</time>
      </trkpt>
      <trkpt lat="44.27063" lon="2.01011">
        <ele>378.5</ele>
        <time>2015-05-25T09:09:50.000Z</time>
      </trkpt>
      <trkpt lat="44.27067" lon="2.01">
        <ele>376.8</ele>
        <time>2015-05-25T09:09:57.000Z</time>
      </trkpt>
      <trkpt lat="44.27068" lon="2.00993">
        <ele>376.1</ele>
        <time>2015-05-25T09:10:02.000Z</time>
      </trkpt>
      <trkpt lat="44.27068" lon="2.00991">
        <ele>376</ele>
        <time>2015-05-25T09:10:03.000Z</time>
      </trkpt>
      <trkpt lat="44.27073" lon="2.00982">
        <ele>373.6</ele>
        <time>2015-05-25T09:10:09.000Z</time>
      </trkpt>
      <trkpt lat="44.27077" lon="2.00969">
        <ele>372.2</ele>
        <time>2015-05-25T09:10:18.000Z</time>
      </trkpt>
      <trkpt lat="44.27077" lon="2.00966">
        <ele>372.2</ele>
        <time>2015-05-25T09:10:20.000Z</time>
      </trkpt>
      <trkpt lat="44.27077" lon="2.00957">
        <ele>372.6</ele>
        <time>2015-05-25T09:10:28.000Z</time>
      </trkpt>
      <trkpt lat="44.27079" lon="2.00954">
        <ele>371.5</ele>
        <time>2015-05-25T09:10:34.000Z</time>
      </trkpt>
      <trkpt lat="44.27079" lon="2.00958">
        <ele>371.5</ele>
        <time>2015-05-25T09:10:37.000Z</time>
      </trkpt>
      <trkpt lat="44.2708" lon="2.00968">
        <ele>370.6</ele>
        <time>2015-05-25T09:10:45.000Z</time>
      </trkpt>
      <trkpt lat="44.27081" lon="2.00972">
        <ele>370.3</ele>
        <time>2015-05-25T09:10:48.000Z</time>
      </trkpt>
      <trkpt lat="44.27082" lon="2.00976">
        <ele>369.5</ele>
        <time>2015-05-25T09:10:51.000Z</time>
      </trkpt>
      <trkpt lat="44.27083" lon="2.00981">
        <ele>369.1</ele>
        <time>2015-05-25T09:10:54.000Z</time>
      </trkpt>
      <trkpt lat="44.27086" lon="2.00987">
        <ele>367.4</ele>
        <time>2015-05-25T09:10:58.000Z</time>
      </trkpt>
      <trkpt lat="44.27085" lon="2.00995">
        <ele>368</ele>
        <time>2015-05-25T09:11:04.000Z</time>
      </trkpt>
      <trkpt lat="44.27087" lon="2.01005">
        <ele>366.8</ele>
        <time>2015-05-25T09:11:11.000Z</time>
      </trkpt>
      <trkpt lat="44.2709" lon="2.01004">
        <ele>365.2</ele>
        <time>2015-05-25T09:11:17.000Z</time>
      </trkpt>
      <trkpt lat="44.2709" lon="2.00998">
        <ele>365.2</ele>
        <time>2015-05-25T09:11:41.000Z</time>
      </trkpt>
      <trkpt lat="44.27091" lon="2.01006">
        <ele>364.5</ele>
        <time>2015-05-25T09:11:45.000Z</time>
      </trkpt>
      <trkpt lat="44.27092" lon="2.01019">
        <ele>363.9</ele>
        <time>2015-05-25T09:11:53.000Z</time>
      </trkpt>
      <trkpt lat="44.27093" lon="2.01025">
        <ele>362.9</ele>
        <time>2015-05-25T09:11:59.000Z</time>
      </trkpt>
      <trkpt lat="44.27095" lon="2.01027">
        <ele>361.9</ele>
        <time>2015-05-25T09:12:01.000Z</time>
      </trkpt>
      <trkpt lat="44.27095" lon="2.01032">
        <ele>361.9</ele>
        <time>2015-05-25T09:12:05.000Z</time>
      </trkpt>
      <trkpt lat="44.27096" lon="2.01033">
        <ele>361.1</ele>
        <time>2015-05-25T09:12:07.000Z</time>
      </trkpt>
      <trkpt lat="44.27102" lon="2.01045">
        <ele>357.6</ele>
        <time>2015-05-25T09:12:14.000Z</time>
      </trkpt>
      <trkpt lat="44.27107" lon="2.01056">
        <ele>354.6</ele>
        <time>2015-05-25T09:12:20.000Z</time>
      </trkpt>
      <trkpt lat="44.27107" lon="2.01064">
        <ele>354.7</ele>
        <time>2015-05-25T09:12:27.000Z</time>
      </trkpt>
      <trkpt lat="44.27106" lon="2.01074">
        <ele>356</ele>
        <time>2015-05-25T09:12:33.000Z</time>
      </trkpt>
      <trkpt lat="44.2711" lon="2.01078">
        <ele>353.4</ele>
        <time>2015-05-25T09:12:39.000Z</time>
      </trkpt>
      <trkpt lat="44.27111" lon="2.0107">
        <ele>352.8</ele>
        <time>2015-05-25T09:12:45.000Z</time>
      </trkpt>
      <trkpt lat="44.27112" lon="2.01059">
        <ele>351.6</ele>
        <time>2015-05-25T09:12:52.000Z</time>
      </trkpt>
      <trkpt lat="44.27113" lon="2.01057">
        <ele>350.9</ele>
        <time>2015-05-25T09:12:53.000Z</time>
      </trkpt>
      <trkpt lat="44.27113" lon="2.0105">
        <ele>350.6</ele>
        <time>2015-05-25T09:13:00.000Z</time>
      </trkpt>
      <trkpt lat="44.27115" lon="2.0105">
        <ele>349.1</ele>
        <time>2015-05-25T09:13:03.000Z</time>
      </trkpt>
      <trkpt lat="44.27116" lon="2.0106">
        <ele>348.6</ele>
        <time>2015-05-25T09:13:10.000Z</time>
      </trkpt>
      <trkpt lat="44.27115" lon="2.01069">
        <ele>350.1</ele>
        <time>2015-05-25T09:13:15.000Z</time>
      </trkpt>
      <trkpt lat="44.27118" lon="2.01078">
        <ele>348.3</ele>
        <time>2015-05-25T09:13:21.000Z</time>
      </trkpt>
      <trkpt lat="44.27118" lon="2.0108">
        <ele>348.2</ele>
        <time>2015-05-25T09:13:22.000Z</time>
      </trkpt>
      <trkpt lat="44.27117" lon="2.01083">
        <ele>348.8</ele>
        <time>2015-05-25T09:13:24.000Z</time>
      </trkpt>
      <trkpt lat="44.27124" lon="2.01094">
        <ele>345.2</ele>
        <time>2015-05-25T09:13:32.000Z</time>
      </trkpt>
      <trkpt lat="44.27124" lon="2.01095">
        <ele>345</ele>
        <time>2015-05-25T09:13:35.000Z</time>
      </trkpt>
      <trkpt lat="44.27131" lon="2.01103">
        <ele>341.3</ele>
        <time>2015-05-25T09:13:43.000Z</time>
      </trkpt>
      <trkpt lat="44.27131" lon="2.01111">
        <ele>341.8</ele>
        <time>2015-05-25T09:13:50.000Z</time>
      </trkpt>
      <trkpt lat="44.27132" lon="2.01112">
        <ele>341.2</ele>
        <time>2015-05-25T09:13:54.000Z</time>
      </trkpt>
      <trkpt lat="44.27134" lon="2.01121">
        <ele>341.5</ele>
        <time>2015-05-25T09:14:00.000Z</time>
      </trkpt>
      <trkpt lat="44.27135" lon="2.01131">
        <ele>341.9</ele>
        <time>2015-05-25T09:14:07.000Z</time>
      </trkpt>
      <trkpt lat="44.27137" lon="2.01139">
        <ele>342.2</ele>
        <time>2015-05-25T09:14:13.000Z</time>
      </trkpt>
      <trkpt lat="44.2714" lon="2.01149">
        <ele>342.6</ele>
        <time>2015-05-25T09:14:21.000Z</time>
      </trkpt>
      <trkpt lat="44.27142" lon="2.01152">
        <ele>342.6</ele>
        <time>2015-05-25T09:14:25.000Z</time>
      </trkpt>
      <trkpt lat="44.27148" lon="2.0116">
        <ele>342.2</ele>
        <time>2015-05-25T09:14:31.000Z</time>
      </trkpt>
      <trkpt lat="44.27155" lon="2.01165">
        <ele>340</ele>
        <time>2015-05-25T09:14:37.000Z</time>
      </trkpt>
      <trkpt lat="44.27161" lon="2.01173">
        <ele>339.9</ele>
        <time>2015-05-25T09:14:44.000Z</time>
      </trkpt>
      <trkpt lat="44.27166" lon="2.01176">
        <ele>339.5</ele>
        <time>2015-05-25T09:14:48.000Z</time>
      </trkpt>
      <trkpt lat="44.2717" lon="2.0118">
        <ele>341.4</ele>
        <time>2015-05-25T09:14:53.000Z</time>
      </trkpt>
      <trkpt lat="44.27172" lon="2.01185">
        <ele>343</ele>
        <time>2015-05-25T09:14:57.000Z</time>
      </trkpt>
      <trkpt lat="44.27177" lon="2.01197">
        <ele>345.6</ele>
        <time>2015-05-25T09:15:05.000Z</time>
      </trkpt>
      <trkpt lat="44.27177" lon="2.01201">
        <ele>346.2</ele>
        <time>2015-05-25T09:15:08.000Z</time>
      </trkpt>
      <trkpt lat="44.27181" lon="2.01208">
        <ele>347</ele>
        <time>2015-05-25T09:15:13.000Z</time>
      </trkpt>
      <trkpt lat="44.27186" lon="2.01223">
        <ele>348.4</ele>
        <time>2015-05-25T09:15:20.000Z</time>
      </trkpt>
      <trkpt lat="44.27189" lon="2.01229">
        <ele>348.7</ele>
        <time>2015-05-25T09:15:25.000Z</time>
      </trkpt>
      <trkpt lat="44.27189" lon="2.01234">
        <ele>349</ele>
        <time>2015-05-25T09:15:32.000Z</time>
      </trkpt>
      <trkpt lat="44.27186" lon="2.01232">
        <ele>348.8</ele>
        <time>2015-05-25T09:15:37.000Z</time>
      </trkpt>
      <trkpt lat="44.27184" lon="2.01238">
        <ele>349</ele>
        <time>2015-05-25T09:15:47.000Z</time>
      </trkpt>
      <trkpt lat="44.27184" lon="2.01243">
        <ele>349.2</ele>
        <time>2015-05-25T09:15:52.000Z</time>
      </trkpt>
      <trkpt lat="44.27185" lon="2.01245">
        <ele>349.4</ele>
        <time>2015-05-25T09:15:55.000Z</time>
      </trkpt>
      <trkpt lat="44.27185" lon="2.01253">
        <ele>350.1</ele>
        <time>2015-05-25T09:16:02.000Z</time>
      </trkpt>
      <trkpt lat="44.27184" lon="2.01255">
        <ele>350.1</ele>
        <time>2015-05-25T09:16:04.000Z</time>
      </trkpt>
      <trkpt lat="44.27184" lon="2.01266">
        <ele>351.4</ele>
        <time>2015-05-25T09:16:12.000Z</time>
      </trkpt>
      <trkpt lat="44.27183" lon="2.01269">
        <ele>351.3</ele>
        <time>2015-05-25T09:16:43.000Z</time>
      </trkpt>
      <trkpt lat="44.27178" lon="2.01271">
        <ele>350.1</ele>
        <time>2015-05-25T09:16:48.000Z</time>
      </trkpt>
      <trkpt lat="44.27177" lon="2.01273">
        <ele>349.9</ele>
        <time>2015-05-25T09:16:54.000Z</time>
      </trkpt>
      <trkpt lat="44.27176" lon="2.01275">
        <ele>349.6</ele>
        <time>2015-05-25T09:16:56.000Z</time>
      </trkpt>
      <trkpt lat="44.27172" lon="2.0129">
        <ele>350.3</ele>
        <time>2015-05-25T09:17:05.000Z</time>
      </trkpt>
      <trkpt lat="44.27174" lon="2.01297">
        <ele>352.8</ele>
        <time>2015-05-25T09:17:12.000Z</time>
      </trkpt>
      <trkpt lat="44.27172" lon="2.01306">
        <ele>353.2</ele>
        <time>2015-05-25T09:17:19.000Z</time>
      </trkpt>
      <trkpt lat="44.27169" lon="2.01315">
        <ele>353.6</ele>
        <time>2015-05-25T09:17:24.000Z</time>
      </trkpt>
      <trkpt lat="44.27169" lon="2.01321">
        <ele>354.4</ele>
        <time>2015-05-25T09:17:30.000Z</time>
      </trkpt>
      <trkpt lat="44.27167" lon="2.01329">
        <ele>354.5</ele>
        <time>2015-05-25T09:17:37.000Z</time>
      </trkpt>
      <trkpt lat="44.27163" lon="2.01331">
        <ele>353.9</ele>
        <time>2015-05-25T09:17:41.000Z</time>
      </trkpt>
      <trkpt lat="44.27161" lon="2.01331">
        <ele>353.5</ele>
        <time>2015-05-25T09:17:44.000Z</time>
      </trkpt>
      <trkpt lat="44.27159" lon="2.01332">
        <ele>353</ele>
        <time>2015-05-25T09:17:47.000Z</time>
      </trkpt>
      <trkpt lat="44.27156" lon="2.01344">
        <ele>353.5</ele>
        <time>2015-05-25T09:17:53.000Z</time>
      </trkpt>
      <trkpt lat="44.27153" lon="2.0136">
        <ele>353.8</ele>
        <time>2015-05-25T09:18:01.000Z</time>
      </trkpt>
      <trkpt lat="44.27148" lon="2.0137">
        <ele>353.1</ele>
        <time>2015-05-25T09:18:09.000Z</time>
      </trkpt>
      <trkpt lat="44.27142" lon="2.0138">
        <ele>351.1</ele>
        <time>2015-05-25T09:18:14.000Z</time>
      </trkpt>
      <trkpt lat="44.2714" lon="2.01389">
        <ele>350.5</ele>
        <time>2015-05-25T09:18:20.000Z</time>
      </trkpt>
      <trkpt lat="44.27139" lon="2.01393">
        <ele>350.4</ele>
        <time>2015-05-25T09:18:22.000Z</time>
      </trkpt>
      <trkpt lat="44.27139" lon="2.01395">
        <ele>350.7</ele>
        <time>2015-05-25T09:18:24.000Z</time>
      </trkpt>
      <trkpt lat="44.27138" lon="2.01406">
        <ele>352.2</ele>
        <time>2015-05-25T09:18:31.000Z</time>
      </trkpt>
      <trkpt lat="44.27137" lon="2.0141">
        <ele>352.7</ele>
        <time>2015-05-25T09:18:33.000Z</time>
      </trkpt>
      <trkpt lat="44.27136" lon="2.01422">
        <ele>354.1</ele>
        <time>2015-05-25T09:18:39.000Z</time>
      </trkpt>
      <trkpt lat="44.27134" lon="2.01434">
        <ele>355.6</ele>
        <time>2015-05-25T09:18:47.000Z</time>
      </trkpt>
      <trkpt lat="44.27135" lon="2.01435">
        <ele>355.6</ele>
        <time>2015-05-25T09:18:48.000Z</time>
      </trkpt>
      <trkpt lat="44.27131" lon="2.01446">
        <ele>357.2</ele>
        <time>2015-05-25T09:18:55.000Z</time>
      </trkpt>
      <trkpt lat="44.27128" lon="2.01458">
        <ele>358</ele>
        <time>2015-05-25T09:19:02.000Z</time>
      </trkpt>
      <trkpt lat="44.27128" lon="2.01459">
        <ele>358</ele>
        <time>2015-05-25T09:19:03.000Z</time>
      </trkpt>
      <trkpt lat="44.27125" lon="2.01468">
        <ele>358.4</ele>
        <time>2015-05-25T09:19:09.000Z</time>
      </trkpt>
      <trkpt lat="44.27122" lon="2.01479">
        <ele>358.3</ele>
        <time>2015-05-25T09:19:15.000Z</time>
      </trkpt>
      <trkpt lat="44.27119" lon="2.01491">
        <ele>357.7</ele>
        <time>2015-05-25T09:19:21.000Z</time>
      </trkpt>
      <trkpt lat="44.27119" lon="2.01493">
        <ele>357.5</ele>
        <time>2015-05-25T09:19:22.000Z</time>
      </trkpt>
      <trkpt lat="44.27119" lon="2.01497">
        <ele>357.2</ele>
        <time>2015-05-25T09:19:24.000Z</time>
      </trkpt>
      <trkpt lat="44.27116" lon="2.01503">
        <ele>356.8</ele>
        <time>2015-05-25T09:19:28.000Z</time>
      </trkpt>
      <trkpt lat="44.27115" lon="2.01508">
        <ele>356.6</ele>
        <time>2015-05-25T09:19:31.000Z</time>
      </trkpt>
      <trkpt lat="44.27115" lon="2.01516">
        <ele>356.7</ele>
        <time>2015-05-25T09:19:36.000Z</time>
      </trkpt>
      <trkpt lat="44.27114" lon="2.01526">
        <ele>356.7</ele>
        <time>2015-05-25T09:19:43.000Z</time>
      </trkpt>
      <trkpt lat="44.27115" lon="2.01536">
        <ele>357.4</ele>
        <time>2015-05-25T09:19:48.000Z</time>
      </trkpt>
      <trkpt lat="44.27115" lon="2.01541">
        <ele>357.8</ele>
        <time>2015-05-25T09:19:50.000Z</time>
      </trkpt>
      <trkpt lat="44.2712" lon="2.01556">
        <ele>360.4</ele>
        <time>2015-05-25T09:19:56.000Z</time>
      </trkpt>
      <trkpt lat="44.27124" lon="2.01571">
        <ele>362.9</ele>
        <time>2015-05-25T09:20:03.000Z</time>
      </trkpt>
      <trkpt lat="44.27127" lon="2.01582">
        <ele>364.8</ele>
        <time>2015-05-25T09:20:09.000Z</time>
      </trkpt>
      <trkpt lat="44.27126" lon="2.01591">
        <ele>365.7</ele>
        <time>2015-05-25T09:20:15.000Z</time>
      </trkpt>
      <trkpt lat="44.27126" lon="2.01592">
        <ele>365.7</ele>
        <time>2015-05-25T09:20:16.000Z</time>
      </trkpt>
      <trkpt lat="44.27123" lon="2.01603">
        <ele>366.6</ele>
        <time>2015-05-25T09:20:23.000Z</time>
      </trkpt>
      <trkpt lat="44.27119" lon="2.01616">
        <ele>367.2</ele>
        <time>2015-05-25T09:20:30.000Z</time>
      </trkpt>
      <trkpt lat="44.27118" lon="2.01617">
        <ele>366.8</ele>
        <time>2015-05-25T09:20:32.000Z</time>
      </trkpt>
      <trkpt lat="44.27114" lon="2.01629">
        <ele>367.5</ele>
        <time>2015-05-25T09:20:39.000Z</time>
      </trkpt>
      <trkpt lat="44.27113" lon="2.0164">
        <ele>368.7</ele>
        <time>2015-05-25T09:20:45.000Z</time>
      </trkpt>
      <trkpt lat="44.27112" lon="2.01647">
        <ele>369.2</ele>
        <time>2015-05-25T09:20:51.000Z</time>
      </trkpt>
      <trkpt lat="44.27112" lon="2.01653">
        <ele>369.8</ele>
        <time>2015-05-25T09:20:58.000Z</time>
      </trkpt>
      <trkpt lat="44.27111" lon="2.01656">
        <ele>369.9</ele>
        <time>2015-05-25T09:21:00.000Z</time>
      </trkpt>
      <trkpt lat="44.27111" lon="2.01664">
        <ele>370.6</ele>
        <time>2015-05-25T09:21:06.000Z</time>
      </trkpt>
      <trkpt lat="44.27112" lon="2.01678">
        <ele>372</ele>
        <time>2015-05-25T09:21:16.000Z</time>
      </trkpt>
      <trkpt lat="44.27108" lon="2.01695">
        <ele>371.6</ele>
        <time>2015-05-25T09:21:24.000Z</time>
      </trkpt>
      <trkpt lat="44.27106" lon="2.01706">
        <ele>372.4</ele>
        <time>2015-05-25T09:21:32.000Z</time>
      </trkpt>
      <trkpt lat="44.27106" lon="2.01718">
        <ele>373.9</ele>
        <time>2015-05-25T09:21:40.000Z</time>
      </trkpt>
      <trkpt lat="44.27102" lon="2.01729">
        <ele>373.6</ele>
        <time>2015-05-25T09:21:47.000Z</time>
      </trkpt>
      <trkpt lat="44.27103" lon="2.01732">
        <ele>373.8</ele>
        <time>2015-05-25T09:21:52.000Z</time>
      </trkpt>
      <trkpt lat="44.27102" lon="2.01734">
        <ele>373.9</ele>
        <time>2015-05-25T09:21:57.000Z</time>
      </trkpt>
      <trkpt lat="44.271" lon="2.01742">
        <ele>373.8</ele>
        <time>2015-05-25T09:22:10.000Z</time>
      </trkpt>
      <trkpt lat="44.27097" lon="2.01752">
        <ele>373.6</ele>
        <time>2015-05-25T09:22:18.000Z</time>
      </trkpt>
      <trkpt lat="44.27093" lon="2.01761">
        <ele>373.7</ele>
        <time>2015-05-25T09:22:25.000Z</time>
      </trkpt>
      <trkpt lat="44.27089" lon="2.01774">
        <ele>374.5</ele>
        <time>2015-05-25T09:22:33.000Z</time>
      </trkpt>
      <trkpt lat="44.27089" lon="2.01779">
        <ele>375.1</ele>
        <time>2015-05-25T09:22:39.000Z</time>
      </trkpt>
      <trkpt lat="44.2709" lon="2.01775">
        <ele>374.9</ele>
        <time>2015-05-25T09:23:03.000Z</time>
      </trkpt>
      <trkpt lat="44.27092" lon="2.01774">
        <ele>375</ele>
        <time>2015-05-25T09:23:05.000Z</time>
      </trkpt>
      <trkpt lat="44.27096" lon="2.01772">
        <ele>375.7</ele>
        <time>2015-05-25T09:23:14.000Z</time>
      </trkpt>
      <trkpt lat="44.27098" lon="2.01771">
        <ele>376</ele>
        <time>2015-05-25T09:23:17.000Z</time>
      </trkpt>
      <trkpt lat="44.27104" lon="2.01762">
        <ele>376.3</ele>
        <time>2015-05-25T09:23:25.000Z</time>
      </trkpt>
      <trkpt lat="44.27109" lon="2.01754">
        <ele>376.8</ele>
        <time>2015-05-25T09:23:32.000Z</time>
      </trkpt>
      <trkpt lat="44.2711" lon="2.01753">
        <ele>376.8</ele>
        <time>2015-05-25T09:23:33.000Z</time>
      </trkpt>
      <trkpt lat="44.27111" lon="2.0175">
        <ele>377</ele>
        <time>2015-05-25T09:23:36.000Z</time>
      </trkpt>
      <trkpt lat="44.27112" lon="2.01744">
        <ele>376.9</ele>
        <time>2015-05-25T09:23:42.000Z</time>
      </trkpt>
      <trkpt lat="44.27115" lon="2.0174">
        <ele>377.6</ele>
        <time>2015-05-25T09:23:52.000Z</time>
      </trkpt>
      <trkpt lat="44.27116" lon="2.01737">
        <ele>378.1</ele>
        <time>2015-05-25T09:23:55.000Z</time>
      </trkpt>
      <trkpt lat="44.27121" lon="2.01731">
        <ele>379.2</ele>
        <time>2015-05-25T09:24:02.000Z</time>
      </trkpt>
      <trkpt lat="44.27125" lon="2.01725">
        <ele>380.3</ele>
        <time>2015-05-25T09:24:07.000Z</time>
      </trkpt>
      <trkpt lat="44.27128" lon="2.01719">
        <ele>380.6</ele>
        <time>2015-05-25T09:24:11.000Z</time>
      </trkpt>
      <trkpt lat="44.2713" lon="2.01716">
        <ele>381.2</ele>
        <time>2015-05-25T09:24:14.000Z</time>
      </trkpt>
      <trkpt lat="44.27133" lon="2.01712">
        <ele>381.9</ele>
        <time>2015-05-25T09:24:18.000Z</time>
      </trkpt>
      <trkpt lat="44.27136" lon="2.017">
        <ele>382.3</ele>
        <time>2015-05-25T09:24:25.000Z</time>
      </trkpt>
      <trkpt lat="44.27141" lon="2.01696">
        <ele>383.6</ele>
        <time>2015-05-25T09:24:31.000Z</time>
      </trkpt>
      <trkpt lat="44.27144" lon="2.01693">
        <ele>384.8</ele>
        <time>2015-05-25T09:24:35.000Z</time>
      </trkpt>
      <trkpt lat="44.27149" lon="2.01686">
        <ele>385.6</ele>
        <time>2015-05-25T09:24:41.000Z</time>
      </trkpt>
      <trkpt lat="44.27153" lon="2.01673">
        <ele>386.3</ele>
        <time>2015-05-25T09:24:48.000Z</time>
      </trkpt>
      <trkpt lat="44.2716" lon="2.01657">
        <ele>387.8</ele>
        <time>2015-05-25T09:24:58.000Z</time>
      </trkpt>
      <trkpt lat="44.27168" lon="2.01644">
        <ele>390</ele>
        <time>2015-05-25T09:25:07.000Z</time>
      </trkpt>
      <trkpt lat="44.27175" lon="2.01629">
        <ele>391.1</ele>
        <time>2015-05-25T09:25:15.000Z</time>
      </trkpt>
      <trkpt lat="44.27176" lon="2.01627">
        <ele>391</ele>
        <time>2015-05-25T09:25:16.000Z</time>
      </trkpt>
      <trkpt lat="44.27184" lon="2.0161">
        <ele>392.2</ele>
        <time>2015-05-25T09:25:25.000Z</time>
      </trkpt>
      <trkpt lat="44.27191" lon="2.01602">
        <ele>394.2</ele>
        <time>2015-05-25T09:25:31.000Z</time>
      </trkpt>
      <trkpt lat="44.27195" lon="2.01598">
        <ele>395.3</ele>
        <time>2015-05-25T09:25:34.000Z</time>
      </trkpt>
      <trkpt lat="44.272" lon="2.01585">
        <ele>396.5</ele>
        <time>2015-05-25T09:25:41.000Z</time>
      </trkpt>
      <trkpt lat="44.272" lon="2.01578">
        <ele>395.9</ele>
        <time>2015-05-25T09:25:43.000Z</time>
      </trkpt>
      <trkpt lat="44.27201" lon="2.01575">
        <ele>395.9</ele>
        <time>2015-05-25T09:25:45.000Z</time>
      </trkpt>
      <trkpt lat="44.27203" lon="2.01568">
        <ele>396.7</ele>
        <time>2015-05-25T09:25:49.000Z</time>
      </trkpt>
      <trkpt lat="44.27205" lon="2.01564">
        <ele>397</ele>
        <time>2015-05-25T09:25:51.000Z</time>
      </trkpt>
      <trkpt lat="44.27209" lon="2.0155">
        <ele>397.7</ele>
        <time>2015-05-25T09:25:59.000Z</time>
      </trkpt>
      <trkpt lat="44.27209" lon="2.01548">
        <ele>397.8</ele>
        <time>2015-05-25T09:26:00.000Z</time>
      </trkpt>
      <trkpt lat="44.27212" lon="2.0154">
        <ele>398.4</ele>
        <time>2015-05-25T09:26:04.000Z</time>
      </trkpt>
      <trkpt lat="44.27218" lon="2.01523">
        <ele>399.8</ele>
        <time>2015-05-25T09:26:13.000Z</time>
      </trkpt>
      <trkpt lat="44.2722" lon="2.0151">
        <ele>399.9</ele>
        <time>2015-05-25T09:26:19.000Z</time>
      </trkpt>
      <trkpt lat="44.27225" lon="2.01496">
        <ele>400.9</ele>
        <time>2015-05-25T09:26:26.000Z</time>
      </trkpt>
      <trkpt lat="44.2723" lon="2.01481">
        <ele>401.7</ele>
        <time>2015-05-25T09:26:34.000Z</time>
      </trkpt>
      <trkpt lat="44.27234" lon="2.01468">
        <ele>403.1</ele>
        <time>2015-05-25T09:26:40.000Z</time>
      </trkpt>
      <trkpt lat="44.27239" lon="2.01453">
        <ele>404.5</ele>
        <time>2015-05-25T09:26:46.000Z</time>
      </trkpt>
      <trkpt lat="44.27243" lon="2.01438">
        <ele>404.4</ele>
        <time>2015-05-25T09:26:51.000Z</time>
      </trkpt>
      <trkpt lat="44.27243" lon="2.01436">
        <ele>404.3</ele>
        <time>2015-05-25T09:26:52.000Z</time>
      </trkpt>
      <trkpt lat="44.27246" lon="2.01424">
        <ele>403.4</ele>
        <time>2015-05-25T09:26:59.000Z</time>
      </trkpt>
      <trkpt lat="44.27248" lon="2.01409">
        <ele>402.6</ele>
        <time>2015-05-25T09:27:07.000Z</time>
      </trkpt>
      <trkpt lat="44.27249" lon="2.01398">
        <ele>402.4</ele>
        <time>2015-05-25T09:27:14.000Z</time>
      </trkpt>
      <trkpt lat="44.27246" lon="2.01391">
        <ele>400.7</ele>
        <time>2015-05-25T09:27:22.000Z</time>
      </trkpt>
      <trkpt lat="44.27246" lon="2.01388">
        <ele>400.4</ele>
        <time>2015-05-25T09:27:40.000Z</time>
      </trkpt>
      <trkpt lat="44.27247" lon="2.01383">
        <ele>400.2</ele>
        <time>2015-05-25T09:27:44.000Z</time>
      </trkpt>
      <trkpt lat="44.27253" lon="2.01375">
        <ele>401.5</ele>
        <time>2015-05-25T09:27:51.000Z</time>
      </trkpt>
      <trkpt lat="44.27259" lon="2.01361">
        <ele>402.6</ele>
        <time>2015-05-25T09:27:59.000Z</time>
      </trkpt>
      <trkpt lat="44.27265" lon="2.01349">
        <ele>403.4</ele>
        <time>2015-05-25T09:28:06.000Z</time>
      </trkpt>
      <trkpt lat="44.27266" lon="2.01347">
        <ele>403.7</ele>
        <time>2015-05-25T09:28:07.000Z</time>
      </trkpt>
      <trkpt lat="44.27271" lon="2.01338">
        <ele>404.8</ele>
        <time>2015-05-25T09:28:12.000Z</time>
      </trkpt>
      <trkpt lat="44.27275" lon="2.01328">
        <ele>404.7</ele>
        <time>2015-05-25T09:28:17.000Z</time>
      </trkpt>
      <trkpt lat="44.27279" lon="2.01311">
        <ele>403.4</ele>
        <time>2015-05-25T09:28:25.000Z</time>
      </trkpt>
      <trkpt lat="44.2728" lon="2.01309">
        <ele>403.5</ele>
        <time>2015-05-25T09:28:26.000Z</time>
      </trkpt>
      <trkpt lat="44.27285" lon="2.01299">
        <ele>403.8</ele>
        <time>2015-05-25T09:28:32.000Z</time>
      </trkpt>
      <trkpt lat="44.2729" lon="2.01285">
        <ele>404.1</ele>
        <time>2015-05-25T09:28:39.000Z</time>
      </trkpt>
      <trkpt lat="44.27292" lon="2.01269">
        <ele>403</ele>
        <time>2015-05-25T09:28:46.000Z</time>
      </trkpt>
      <trkpt lat="44.27298" lon="2.01257">
        <ele>404.1</ele>
        <time>2015-05-25T09:28:53.000Z</time>
      </trkpt>
      <trkpt lat="44.27304" lon="2.01246">
        <ele>405.9</ele>
        <time>2015-05-25T09:28:59.000Z</time>
      </trkpt>
      <trkpt lat="44.27306" lon="2.0124">
        <ele>406.7</ele>
        <time>2015-05-25T09:29:02.000Z</time>
      </trkpt>
      <trkpt lat="44.27311" lon="2.01225">
        <ele>408.6</ele>
        <time>2015-05-25T09:29:10.000Z</time>
      </trkpt>
      <trkpt lat="44.27319" lon="2.01209">
        <ele>410.2</ele>
        <time>2015-05-25T09:29:19.000Z</time>
      </trkpt>
      <trkpt lat="44.27325" lon="2.01199">
        <ele>411.5</ele>
        <time>2015-05-25T09:29:25.000Z</time>
      </trkpt>
      <trkpt lat="44.2733" lon="2.01186">
        <ele>411.7</ele>
        <time>2015-05-25T09:29:31.000Z</time>
      </trkpt>
      <trkpt lat="44.27333" lon="2.01176">
        <ele>412</ele>
        <time>2015-05-25T09:29:36.000Z</time>
      </trkpt>
      <trkpt lat="44.27339" lon="2.01169">
        <ele>413</ele>
        <time>2015-05-25T09:29:41.000Z</time>
      </trkpt>
      <trkpt lat="44.27342" lon="2.01161">
        <ele>413</ele>
        <time>2015-05-25T09:29:45.000Z</time>
      </trkpt>
      <trkpt lat="44.2735" lon="2.0114">
        <ele>413</ele>
        <time>2015-05-25T09:29:55.000Z</time>
      </trkpt>
      <trkpt lat="44.27355" lon="2.01129">
        <ele>413.1</ele>
        <time>2015-05-25T09:30:01.000Z</time>
      </trkpt>
      <trkpt lat="44.27358" lon="2.01124">
        <ele>413.5</ele>
        <time>2015-05-25T09:30:04.000Z</time>
      </trkpt>
      <trkpt lat="44.27364" lon="2.01111">
        <ele>413.4</ele>
        <time>2015-05-25T09:30:11.000Z</time>
      </trkpt>
      <trkpt lat="44.2737" lon="2.01099">
        <ele>412.9</ele>
        <time>2015-05-25T09:30:18.000Z</time>
      </trkpt>
      <trkpt lat="44.27377" lon="2.0109">
        <ele>412.8</ele>
        <time>2015-05-25T09:30:25.000Z</time>
      </trkpt>
      <trkpt lat="44.27384" lon="2.01078">
        <ele>412.3</ele>
        <time>2015-05-25T09:30:32.000Z</time>
      </trkpt>
      <trkpt lat="44.27394" lon="2.01065">
        <ele>411.9</ele>
        <time>2015-05-25T09:30:41.000Z</time>
      </trkpt>
      <trkpt lat="44.27403" lon="2.01054">
        <ele>411.3</ele>
        <time>2015-05-25T09:30:49.000Z</time>
      </trkpt>
      <trkpt lat="44.2741" lon="2.01048">
        <ele>411.3</ele>
        <time>2015-05-25T09:30:56.000Z</time>
      </trkpt>
      <trkpt lat="44.27419" lon="2.01041">
        <ele>411</ele>
        <time>2015-05-25T09:31:05.000Z</time>
      </trkpt>
      <trkpt lat="44.27422" lon="2.01038">
        <ele>410.5</ele>
        <time>2015-05-25T09:31:40.000Z</time>
      </trkpt>
      <trkpt lat="44.27429" lon="2.01035">
        <ele>410.1</ele>
        <time>2015-05-25T09:31:46.000Z</time>
      </trkpt>
      <trkpt lat="44.27431" lon="2.01033">
        <ele>409.9</ele>
        <time>2015-05-25T09:31:48.000Z</time>
      </trkpt>
      <trkpt lat="44.27435" lon="2.01031">
        <ele>409.5</ele>
        <time>2015-05-25T09:31:52.000Z</time>
      </trkpt>
      <trkpt lat="44.27445" lon="2.01026">
        <ele>408.6</ele>
        <time>2015-05-25T09:32:01.000Z</time>
      </trkpt>
      <trkpt lat="44.27457" lon="2.01019">
        <ele>406.4</ele>
        <time>2015-05-25T09:32:10.000Z</time>
      </trkpt>
      <trkpt lat="44.27458" lon="2.01018">
        <ele>406.2</ele>
        <time>2015-05-25T09:32:11.000Z</time>
      </trkpt>
      <trkpt lat="44.27465" lon="2.01016">
        <ele>405.3</ele>
        <time>2015-05-25T09:32:17.000Z</time>
      </trkpt>
      <trkpt lat="44.2747" lon="2.01014">
        <ele>404.7</ele>
        <time>2015-05-25T09:32:23.000Z</time>
      </trkpt>
      <trkpt lat="44.27475" lon="2.01009">
        <ele>403.8</ele>
        <time>2015-05-25T09:32:29.000Z</time>
      </trkpt>
      <trkpt lat="44.27482" lon="2.01008">
        <ele>402.1</ele>
        <time>2015-05-25T09:32:36.000Z</time>
      </trkpt>
      <trkpt lat="44.27486" lon="2.01009">
        <ele>401.4</ele>
        <time>2015-05-25T09:32:41.000Z</time>
      </trkpt>
      <trkpt lat="44.27487" lon="2.0101">
        <ele>401.1</ele>
        <time>2015-05-25T09:32:43.000Z</time>
      </trkpt>
      <trkpt lat="44.27492" lon="2.01011">
        <ele>400.1</ele>
        <time>2015-05-25T09:32:50.000Z</time>
      </trkpt>
      <trkpt lat="44.27495" lon="2.01017">
        <ele>399.6</ele>
        <time>2015-05-25T09:32:58.000Z</time>
      </trkpt>
      <trkpt lat="44.27497" lon="2.01022">
        <ele>399.5</ele>
        <time>2015-05-25T09:33:02.000Z</time>
      </trkpt>
      <trkpt lat="44.27503" lon="2.01032">
        <ele>398.8</ele>
        <time>2015-05-25T09:33:08.000Z</time>
      </trkpt>
      <trkpt lat="44.27503" lon="2.01034">
        <ele>398.8</ele>
        <time>2015-05-25T09:33:10.000Z</time>
      </trkpt>
      <trkpt lat="44.27508" lon="2.01042">
        <ele>398.6</ele>
        <time>2015-05-25T09:33:17.000Z</time>
      </trkpt>
      <trkpt lat="44.27512" lon="2.01052">
        <ele>398.8</ele>
        <time>2015-05-25T09:33:24.000Z</time>
      </trkpt>
      <trkpt lat="44.27513" lon="2.01054">
        <ele>398.9</ele>
        <time>2015-05-25T09:33:25.000Z</time>
      </trkpt>
      <trkpt lat="44.27516" lon="2.01058">
        <ele>399</ele>
        <time>2015-05-25T09:33:28.000Z</time>
      </trkpt>
      <trkpt lat="44.27519" lon="2.01066">
        <ele>399.4</ele>
        <time>2015-05-25T09:33:34.000Z</time>
      </trkpt>
      <trkpt lat="44.27524" lon="2.01071">
        <ele>399.2</ele>
        <time>2015-05-25T09:33:41.000Z</time>
      </trkpt>
      <trkpt lat="44.27533" lon="2.01083">
        <ele>399.1</ele>
        <time>2015-05-25T09:33:47.000Z</time>
      </trkpt>
      <trkpt lat="44.27544" lon="2.01093">
        <ele>398.1</ele>
        <time>2015-05-25T09:33:54.000Z</time>
      </trkpt>
      <trkpt lat="44.27546" lon="2.01095">
        <ele>397.7</ele>
        <time>2015-05-25T09:33:56.000Z</time>
      </trkpt>
      <trkpt lat="44.27556" lon="2.01096">
        <ele>395.9</ele>
        <time>2015-05-25T09:34:02.000Z</time>
      </trkpt>
      <trkpt lat="44.2756" lon="2.01098">
        <ele>394.7</ele>
        <time>2015-05-25T09:34:13.000Z</time>
      </trkpt>
      <trkpt lat="44.27559" lon="2.01101">
        <ele>395.2</ele>
        <time>2015-05-25T09:34:20.000Z</time>
      </trkpt>
      <trkpt lat="44.27563" lon="2.01107">
        <ele>394.5</ele>
        <time>2015-05-25T09:34:32.000Z</time>
      </trkpt>
      <trkpt lat="44.2757" lon="2.01119">
        <ele>394.4</ele>
        <time>2015-05-25T09:34:40.000Z</time>
      </trkpt>
      <trkpt lat="44.27575" lon="2.01126">
        <ele>393.8</ele>
        <time>2015-05-25T09:34:45.000Z</time>
      </trkpt>
      <trkpt lat="44.27583" lon="2.01133">
        <ele>392.3</ele>
        <time>2015-05-25T09:34:50.000Z</time>
      </trkpt>
      <trkpt lat="44.27586" lon="2.01134">
        <ele>392</ele>
        <time>2015-05-25T09:34:53.000Z</time>
      </trkpt>
      <trkpt lat="44.27587" lon="2.01133">
        <ele>391.7</ele>
        <time>2015-05-25T09:34:55.000Z</time>
      </trkpt>
      <trkpt lat="44.27593" lon="2.01129">
        <ele>390.5</ele>
        <time>2015-05-25T09:35:00.000Z</time>
      </trkpt>
      <trkpt lat="44.27601" lon="2.01127">
        <ele>389.2</ele>
        <time>2015-05-25T09:35:05.000Z</time>
      </trkpt>
      <trkpt lat="44.27606" lon="2.01127">
        <ele>388.5</ele>
        <time>2015-05-25T09:35:09.000Z</time>
      </trkpt>
      <trkpt lat="44.27609" lon="2.01128">
        <ele>388.6</ele>
        <time>2015-05-25T09:35:12.000Z</time>
      </trkpt>
      <trkpt lat="44.27617" lon="2.01129">
        <ele>388.7</ele>
        <time>2015-05-25T09:35:20.000Z</time>
      </trkpt>
      <trkpt lat="44.27623" lon="2.01127">
        <ele>388.2</ele>
        <time>2015-05-25T09:35:26.000Z</time>
      </trkpt>
      <trkpt lat="44.27629" lon="2.0112">
        <ele>386.6</ele>
        <time>2015-05-25T09:35:32.000Z</time>
      </trkpt>
      <trkpt lat="44.27633" lon="2.01116">
        <ele>385.9</ele>
        <time>2015-05-25T09:35:36.000Z</time>
      </trkpt>
      <trkpt lat="44.27641" lon="2.01111">
        <ele>384.6</ele>
        <time>2015-05-25T09:35:42.000Z</time>
      </trkpt>
      <trkpt lat="44.27643" lon="2.0111">
        <ele>384.1</ele>
        <time>2015-05-25T09:35:44.000Z</time>
      </trkpt>
      <trkpt lat="44.27646" lon="2.0111">
        <ele>383.8</ele>
        <time>2015-05-25T09:35:46.000Z</time>
      </trkpt>
      <trkpt lat="44.2765" lon="2.01112">
        <ele>383.5</ele>
        <time>2015-05-25T09:35:50.000Z</time>
      </trkpt>
      <trkpt lat="44.27661" lon="2.01121">
        <ele>383.1</ele>
        <time>2015-05-25T09:35:57.000Z</time>
      </trkpt>
      <trkpt lat="44.27668" lon="2.01129">
        <ele>382.5</ele>
        <time>2015-05-25T09:36:04.000Z</time>
      </trkpt>
      <trkpt lat="44.2767" lon="2.01129">
        <ele>382.2</ele>
        <time>2015-05-25T09:36:06.000Z</time>
      </trkpt>
      <trkpt lat="44.27671" lon="2.01131">
        <ele>382.1</ele>
        <time>2015-05-25T09:36:09.000Z</time>
      </trkpt>
      <trkpt lat="44.27679" lon="2.01134">
        <ele>380.8</ele>
        <time>2015-05-25T09:36:16.000Z</time>
      </trkpt>
      <trkpt lat="44.27682" lon="2.01136">
        <ele>380.3</ele>
        <time>2015-05-25T09:36:19.000Z</time>
      </trkpt>
      <trkpt lat="44.27686" lon="2.01129">
        <ele>378.5</ele>
        <time>2015-05-25T09:36:25.000Z</time>
      </trkpt>
      <trkpt lat="44.27685" lon="2.01118">
        <ele>377.3</ele>
        <time>2015-05-25T09:36:33.000Z</time>
      </trkpt>
      <trkpt lat="44.27686" lon="2.01116">
        <ele>376.8</ele>
        <time>2015-05-25T09:36:36.000Z</time>
      </trkpt>
      <trkpt lat="44.27689" lon="2.01112">
        <ele>375.5</ele>
        <time>2015-05-25T09:36:41.000Z</time>
      </trkpt>
      <trkpt lat="44.2769" lon="2.0111">
        <ele>375</ele>
        <time>2015-05-25T09:36:43.000Z</time>
      </trkpt>
      <trkpt lat="44.27695" lon="2.01108">
        <ele>373.3</ele>
        <time>2015-05-25T09:36:52.000Z</time>
      </trkpt>
      <trkpt lat="44.27699" lon="2.01108">
        <ele>372.7</ele>
        <time>2015-05-25T09:36:56.000Z</time>
      </trkpt>
      <trkpt lat="44.27698" lon="2.01106">
        <ele>372.4</ele>
        <time>2015-05-25T09:37:06.000Z</time>
      </trkpt>
      <trkpt lat="44.27706" lon="2.01103">
        <ele>370.2</ele>
        <time>2015-05-25T09:37:13.000Z</time>
      </trkpt>
      <trkpt lat="44.27709" lon="2.011">
        <ele>369.1</ele>
        <time>2015-05-25T09:37:18.000Z</time>
      </trkpt>
      <trkpt lat="44.27713" lon="2.01099">
        <ele>368.2</ele>
        <time>2015-05-25T09:37:21.000Z</time>
      </trkpt>
      <trkpt lat="44.2772" lon="2.01102">
        <ele>367.3</ele>
        <time>2015-05-25T09:37:27.000Z</time>
      </trkpt>
      <trkpt lat="44.27725" lon="2.01104">
        <ele>367.7</ele>
        <time>2015-05-25T09:37:31.000Z</time>
      </trkpt>
      <trkpt lat="44.27726" lon="2.01102">
        <ele>367.5</ele>
        <time>2015-05-25T09:37:33.000Z</time>
      </trkpt>
      <trkpt lat="44.27732" lon="2.01104">
        <ele>368.3</ele>
        <time>2015-05-25T09:37:38.000Z</time>
      </trkpt>
      <trkpt lat="44.27735" lon="2.01105">
        <ele>369</ele>
        <time>2015-05-25T09:37:41.000Z</time>
      </trkpt>
      <trkpt lat="44.27741" lon="2.01103">
        <ele>369.2</ele>
        <time>2015-05-25T09:37:47.000Z</time>
      </trkpt>
      <trkpt lat="44.2775" lon="2.01098">
        <ele>368.8</ele>
        <time>2015-05-25T09:37:54.000Z</time>
      </trkpt>
      <trkpt lat="44.27758" lon="2.01093">
        <ele>369</ele>
        <time>2015-05-25T09:38:00.000Z</time>
      </trkpt>
      <trkpt lat="44.27762" lon="2.01092">
        <ele>369.7</ele>
        <time>2015-05-25T09:38:03.000Z</time>
      </trkpt>
      <trkpt lat="44.27766" lon="2.01094">
        <ele>370.9</ele>
        <time>2015-05-25T09:38:06.000Z</time>
      </trkpt>
      <trkpt lat="44.2777" lon="2.01096">
        <ele>372.3</ele>
        <time>2015-05-25T09:38:09.000Z</time>
      </trkpt>
      <trkpt lat="44.27774" lon="2.01098">
        <ele>373.5</ele>
        <time>2015-05-25T09:38:13.000Z</time>
      </trkpt>
      <trkpt lat="44.2778" lon="2.01103">
        <ele>375.8</ele>
        <time>2015-05-25T09:38:19.000Z</time>
      </trkpt>
      <trkpt lat="44.27783" lon="2.01106">
        <ele>377.1</ele>
        <time>2015-05-25T09:38:23.000Z</time>
      </trkpt>
      <trkpt lat="44.27785" lon="2.01109">
        <ele>378.4</ele>
        <time>2015-05-25T09:38:28.000Z</time>
      </trkpt>
      <trkpt lat="44.27791" lon="2.01109">
        <ele>380</ele>
        <time>2015-05-25T09:38:34.000Z</time>
      </trkpt>
      <trkpt lat="44.27797" lon="2.01109">
        <ele>381.3</ele>
        <time>2015-05-25T09:38:41.000Z</time>
      </trkpt>
      <trkpt lat="44.27803" lon="2.01112">
        <ele>383.4</ele>
        <time>2015-05-25T09:38:46.000Z</time>
      </trkpt>
      <trkpt lat="44.27804" lon="2.01113">
        <ele>384</ele>
        <time>2015-05-25T09:38:47.000Z</time>
      </trkpt>
      <trkpt lat="44.2781" lon="2.01122">
        <ele>387.5</ele>
        <time>2015-05-25T09:38:56.000Z</time>
      </trkpt>
      <trkpt lat="44.27814" lon="2.01121">
        <ele>387.9</ele>
        <time>2015-05-25T09:39:01.000Z</time>
      </trkpt>
      <trkpt lat="44.27815" lon="2.01124">
        <ele>388.7</ele>
        <time>2015-05-25T09:39:50.000Z</time>
      </trkpt>
      <trkpt lat="44.27819" lon="2.01123">
        <ele>389.2</ele>
        <time>2015-05-25T09:39:53.000Z</time>
      </trkpt>
      <trkpt lat="44.2782" lon="2.01122">
        <ele>389.1</ele>
        <time>2015-05-25T09:39:55.000Z</time>
      </trkpt>
      <trkpt lat="44.27824" lon="2.01121">
        <ele>389.5</ele>
        <time>2015-05-25T09:40:01.000Z</time>
      </trkpt>
      <trkpt lat="44.27825" lon="2.01122">
        <ele>389.8</ele>
        <time>2015-05-25T09:40:13.000Z</time>
      </trkpt>
      <trkpt lat="44.27828" lon="2.01119">
        <ele>389.9</ele>
        <time>2015-05-25T09:40:19.000Z</time>
      </trkpt>
      <trkpt lat="44.27833" lon="2.01119">
        <ele>390.6</ele>
        <time>2015-05-25T09:40:24.000Z</time>
      </trkpt>
      <trkpt lat="44.27841" lon="2.01115">
        <ele>390.6</ele>
        <time>2015-05-25T09:40:31.000Z</time>
      </trkpt>
      <trkpt lat="44.27846" lon="2.01114">
        <ele>391</ele>
        <time>2015-05-25T09:40:36.000Z</time>
      </trkpt>
      <trkpt lat="44.27854" lon="2.01112">
        <ele>391.4</ele>
        <time>2015-05-25T09:40:43.000Z</time>
      </trkpt>
      <trkpt lat="44.2786" lon="2.01111">
        <ele>391.8</ele>
        <time>2015-05-25T09:40:48.000Z</time>
      </trkpt>
      <trkpt lat="44.27863" lon="2.0111">
        <ele>391.7</ele>
        <time>2015-05-25T09:40:50.000Z</time>
      </trkpt>
      <trkpt lat="44.27869" lon="2.01114">
        <ele>392.2</ele>
        <time>2015-05-25T09:40:55.000Z</time>
      </trkpt>
      <trkpt lat="44.27872" lon="2.01118">
        <ele>393</ele>
        <time>2015-05-25T09:40:59.000Z</time>
      </trkpt>
      <trkpt lat="44.27876" lon="2.01123">
        <ele>393.6</ele>
        <time>2015-05-25T09:41:05.000Z</time>
      </trkpt>
      <trkpt lat="44.27878" lon="2.0113">
        <ele>394.8</ele>
        <time>2015-05-25T09:41:10.000Z</time>
      </trkpt>
      <trkpt lat="44.27877" lon="2.01137">
        <ele>396.1</ele>
        <time>2015-05-25T09:41:15.000Z</time>
      </trkpt>
      <trkpt lat="44.27879" lon="2.01146">
        <ele>397.7</ele>
        <time>2015-05-25T09:41:22.000Z</time>
      </trkpt>
      <trkpt lat="44.2788" lon="2.01151">
        <ele>398.8</ele>
        <time>2015-05-25T09:41:26.000Z</time>
      </trkpt>
      <trkpt lat="44.27882" lon="2.01162">
        <ele>400.9</ele>
        <time>2015-05-25T09:41:34.000Z</time>
      </trkpt>
      <trkpt lat="44.27886" lon="2.01168">
        <ele>401.5</ele>
        <time>2015-05-25T09:41:39.000Z</time>
      </trkpt>
      <trkpt lat="44.27898" lon="2.01171">
        <ele>400.1</ele>
        <time>2015-05-25T09:41:46.000Z</time>
      </trkpt>
      <trkpt lat="44.27907" lon="2.0117">
        <ele>398.7</ele>
        <time>2015-05-25T09:41:52.000Z</time>
      </trkpt>
      <trkpt lat="44.27916" lon="2.01168">
        <ele>397.3</ele>
        <time>2015-05-25T09:41:58.000Z</time>
      </trkpt>
      <trkpt lat="44.27918" lon="2.01167">
        <ele>396.8</ele>
        <time>2015-05-25T09:41:59.000Z</time>
      </trkpt>
      <trkpt lat="44.2792" lon="2.01167">
        <ele>396.2</ele>
        <time>2015-05-25T09:42:01.000Z</time>
      </trkpt>
      <trkpt lat="44.27928" lon="2.01169">
        <ele>394.8</ele>
        <time>2015-05-25T09:42:08.000Z</time>
      </trkpt>
      <trkpt lat="44.27931" lon="2.01169">
        <ele>394</ele>
        <time>2015-05-25T09:42:11.000Z</time>
      </trkpt>
      <trkpt lat="44.27941" lon="2.01171">
        <ele>392.3</ele>
        <time>2015-05-25T09:42:18.000Z</time>
      </trkpt>
      <trkpt lat="44.27948" lon="2.01171">
        <ele>390.6</ele>
        <time>2015-05-25T09:42:23.000Z</time>
      </trkpt>
      <trkpt lat="44.27949" lon="2.01171">
        <ele>390.5</ele>
        <time>2015-05-25T09:42:24.000Z</time>
      </trkpt>
      <trkpt lat="44.27951" lon="2.0117">
        <ele>389.9</ele>
        <time>2015-05-25T09:42:28.000Z</time>
      </trkpt>
      <trkpt lat="44.27956" lon="2.01169">
        <ele>388.8</ele>
        <time>2015-05-25T09:42:32.000Z</time>
      </trkpt>
      <trkpt lat="44.27959" lon="2.0117">
        <ele>388.3</ele>
        <time>2015-05-25T09:42:34.000Z</time>
      </trkpt>
      <trkpt lat="44.27961" lon="2.01173">
        <ele>388.1</ele>
        <time>2015-05-25T09:42:38.000Z</time>
      </trkpt>
      <trkpt lat="44.27966" lon="2.01174">
        <ele>387.1</ele>
        <time>2015-05-25T09:42:44.000Z</time>
      </trkpt>
      <trkpt lat="44.27974" lon="2.01176">
        <ele>385.7</ele>
        <time>2015-05-25T09:42:51.000Z</time>
      </trkpt>
      <trkpt lat="44.27978" lon="2.01175">
        <ele>385.1</ele>
        <time>2015-05-25T09:42:54.000Z</time>
      </trkpt>
      <trkpt lat="44.27982" lon="2.01175">
        <ele>384.4</ele>
        <time>2015-05-25T09:42:58.000Z</time>
      </trkpt>
      <trkpt lat="44.27985" lon="2.01176">
        <ele>384</ele>
        <time>2015-05-25T09:43:00.000Z</time>
      </trkpt>
      <trkpt lat="44.27991" lon="2.01179">
        <ele>383.4</ele>
        <time>2015-05-25T09:43:07.000Z</time>
      </trkpt>
      <trkpt lat="44.27995" lon="2.0118">
        <ele>382.8</ele>
        <time>2015-05-25T09:43:11.000Z</time>
      </trkpt>
      <trkpt lat="44.27996" lon="2.01184">
        <ele>382.9</ele>
        <time>2015-05-25T09:43:19.000Z</time>
      </trkpt>
      <trkpt lat="44.27995" lon="2.01186">
        <ele>383.2</ele>
        <time>2015-05-25T09:43:28.000Z</time>
      </trkpt>
      <trkpt lat="44.27997" lon="2.01186">
        <ele>382.8</ele>
        <time>2015-05-25T09:43:40.000Z</time>
      </trkpt>
      <trkpt lat="44.28" lon="2.01184">
        <ele>382.3</ele>
        <time>2015-05-25T09:43:43.000Z</time>
      </trkpt>
      <trkpt lat="44.28006" lon="2.01181">
        <ele>381.2</ele>
        <time>2015-05-25T09:43:50.000Z</time>
      </trkpt>
      <trkpt lat="44.28014" lon="2.01174">
        <ele>379.5</ele>
        <time>2015-05-25T09:43:58.000Z</time>
      </trkpt>
      <trkpt lat="44.28018" lon="2.01169">
        <ele>378.5</ele>
        <time>2015-05-25T09:44:03.000Z</time>
      </trkpt>
      <trkpt lat="44.28021" lon="2.0117">
        <ele>378.3</ele>
        <time>2015-05-25T09:44:11.000Z</time>
      </trkpt>
      <trkpt lat="44.28022" lon="2.01167">
        <ele>377.9</ele>
        <time>2015-05-25T09:44:16.000Z</time>
      </trkpt>
      <trkpt lat="44.28027" lon="2.01161">
        <ele>376.6</ele>
        <time>2015-05-25T09:44:22.000Z</time>
      </trkpt>
      <trkpt lat="44.28032" lon="2.01155">
        <ele>375.8</ele>
        <time>2015-05-25T09:44:28.000Z</time>
      </trkpt>
      <trkpt lat="44.28033" lon="2.01153">
        <ele>375.5</ele>
        <time>2015-05-25T09:44:30.000Z</time>
      </trkpt>
      <trkpt lat="44.28036" lon="2.01149">
        <ele>375.1</ele>
        <time>2015-05-25T09:44:34.000Z</time>
      </trkpt>
      <trkpt lat="44.28043" lon="2.01145">
        <ele>374.2</ele>
        <time>2015-05-25T09:44:40.000Z</time>
      </trkpt>
      <trkpt lat="44.28047" lon="2.01143">
        <ele>373.8</ele>
        <time>2015-05-25T09:44:45.000Z</time>
      </trkpt>
      <trkpt lat="44.28054" lon="2.01138">
        <ele>373</ele>
        <time>2015-05-25T09:44:52.000Z</time>
      </trkpt>
      <trkpt lat="44.28061" lon="2.0113">
        <ele>371.5</ele>
        <time>2015-05-25T09:44:58.000Z</time>
      </trkpt>
      <trkpt lat="44.28067" lon="2.01123">
        <ele>370</ele>
        <time>2015-05-25T09:45:04.000Z</time>
      </trkpt>
      <trkpt lat="44.28071" lon="2.01115">
        <ele>369</ele>
        <time>2015-05-25T09:45:10.000Z</time>
      </trkpt>
      <trkpt lat="44.28073" lon="2.01113">
        <ele>368.5</ele>
        <time>2015-05-25T09:45:19.000Z</time>
      </trkpt>
      <trkpt lat="44.2808" lon="2.0111">
        <ele>367.4</ele>
        <time>2015-05-25T09:45:32.000Z</time>
      </trkpt>
      <trkpt lat="44.28088" lon="2.01105">
        <ele>365.8</ele>
        <time>2015-05-25T09:45:38.000Z</time>
      </trkpt>
      <trkpt lat="44.28095" lon="2.01097">
        <ele>364.4</ele>
        <time>2015-05-25T09:45:45.000Z</time>
      </trkpt>
      <trkpt lat="44.28096" lon="2.01096">
        <ele>364.3</ele>
        <time>2015-05-25T09:45:46.000Z</time>
      </trkpt>
      <trkpt lat="44.28102" lon="2.01083">
        <ele>363.3</ele>
        <time>2015-05-25T09:45:54.000Z</time>
      </trkpt>
      <trkpt lat="44.28106" lon="2.01075">
        <ele>362.6</ele>
        <time>2015-05-25T09:45:59.000Z</time>
      </trkpt>
      <trkpt lat="44.28107" lon="2.01073">
        <ele>362.4</ele>
        <time>2015-05-25T09:46:00.000Z</time>
      </trkpt>
      <trkpt lat="44.28112" lon="2.01064">
        <ele>361.8</ele>
        <time>2015-05-25T09:46:06.000Z</time>
      </trkpt>
      <trkpt lat="44.28114" lon="2.0106">
        <ele>361.4</ele>
        <time>2015-05-25T09:46:10.000Z</time>
      </trkpt>
      <trkpt lat="44.28119" lon="2.01053">
        <ele>360</ele>
        <time>2015-05-25T09:46:17.000Z</time>
      </trkpt>
      <trkpt lat="44.28121" lon="2.01051">
        <ele>359.7</ele>
        <time>2015-05-25T09:46:18.000Z</time>
      </trkpt>
      <trkpt lat="44.28128" lon="2.01045">
        <ele>358.1</ele>
        <time>2015-05-25T09:46:25.000Z</time>
      </trkpt>
      <trkpt lat="44.28132" lon="2.0104">
        <ele>357.5</ele>
        <time>2015-05-25T09:46:30.000Z</time>
      </trkpt>
      <trkpt lat="44.28136" lon="2.01038">
        <ele>356.9</ele>
        <time>2015-05-25T09:46:33.000Z</time>
      </trkpt>
      <trkpt lat="44.28141" lon="2.01033">
        <ele>355.9</ele>
        <time>2015-05-25T09:46:38.000Z</time>
      </trkpt>
      <trkpt lat="44.28149" lon="2.01023">
        <ele>352.7</ele>
        <time>2015-05-25T09:46:47.000Z</time>
      </trkpt>
      <trkpt lat="44.2815" lon="2.01012">
        <ele>351.2</ele>
        <time>2015-05-25T09:46:55.000Z</time>
      </trkpt>
      <trkpt lat="44.28152" lon="2.01009">
        <ele>350.3</ele>
        <time>2015-05-25T09:46:58.000Z</time>
      </trkpt>
      <trkpt lat="44.28154" lon="2.01006">
        <ele>349.6</ele>
        <time>2015-05-25T09:47:00.000Z</time>
      </trkpt>
      <trkpt lat="44.28158" lon="2.00998">
        <ele>347.8</ele>
        <time>2015-05-25T09:47:07.000Z</time>
      </trkpt>
      <trkpt lat="44.28159" lon="2.00997">
        <ele>347.5</ele>
        <time>2015-05-25T09:47:08.000Z</time>
      </trkpt>
      <trkpt lat="44.28162" lon="2.0099">
        <ele>345.5</ele>
        <time>2015-05-25T09:47:19.000Z</time>
      </trkpt>
      <trkpt lat="44.28161" lon="2.00983">
        <ele>344.5</ele>
        <time>2015-05-25T09:47:29.000Z</time>
      </trkpt>
      <trkpt lat="44.28169" lon="2.00981">
        <ele>342.2</ele>
        <time>2015-05-25T09:47:50.000Z</time>
      </trkpt>
      <trkpt lat="44.28163" lon="2.00984">
        <ele>344.3</ele>
        <time>2015-05-25T09:47:56.000Z</time>
      </trkpt>
      <trkpt lat="44.28162" lon="2.00979">
        <ele>343.6</ele>
        <time>2015-05-25T09:48:01.000Z</time>
      </trkpt>
      <trkpt lat="44.28159" lon="2.00974">
        <ele>343.2</ele>
        <time>2015-05-25T09:48:09.000Z</time>
      </trkpt>
      <trkpt lat="44.28157" lon="2.0097">
        <ele>342.3</ele>
        <time>2015-05-25T09:48:13.000Z</time>
      </trkpt>
      <trkpt lat="44.28156" lon="2.0097">
        <ele>342.4</ele>
        <time>2015-05-25T09:48:15.000Z</time>
      </trkpt>
      <trkpt lat="44.2815" lon="2.00961">
        <ele>340.3</ele>
        <time>2015-05-25T09:48:21.000Z</time>
      </trkpt>
      <trkpt lat="44.28147" lon="2.00958">
        <ele>339.7</ele>
        <time>2015-05-25T09:48:25.000Z</time>
      </trkpt>
      <trkpt lat="44.28143" lon="2.00955">
        <ele>339.1</ele>
        <time>2015-05-25T09:48:29.000Z</time>
      </trkpt>
      <trkpt lat="44.28139" lon="2.00949">
        <ele>337.5</ele>
        <time>2015-05-25T09:48:34.000Z</time>
      </trkpt>
      <trkpt lat="44.28136" lon="2.00946">
        <ele>336.6</ele>
        <time>2015-05-25T09:48:37.000Z</time>
      </trkpt>
      <trkpt lat="44.28134" lon="2.00944">
        <ele>335.9</ele>
        <time>2015-05-25T09:48:39.000Z</time>
      </trkpt>
      <trkpt lat="44.28127" lon="2.00938">
        <ele>334.9</ele>
        <time>2015-05-25T09:48:46.000Z</time>
      </trkpt>
      <trkpt lat="44.28126" lon="2.00937">
        <ele>334.6</ele>
        <time>2015-05-25T09:48:47.000Z</time>
      </trkpt>
      <trkpt lat="44.2812" lon="2.0093">
        <ele>333</ele>
        <time>2015-05-25T09:48:53.000Z</time>
      </trkpt>
      <trkpt lat="44.28113" lon="2.00926">
        <ele>332.2</ele>
        <time>2015-05-25T09:49:01.000Z</time>
      </trkpt>
      <trkpt lat="44.28113" lon="2.00925">
        <ele>332</ele>
        <time>2015-05-25T09:49:02.000Z</time>
      </trkpt>
      <trkpt lat="44.28111" lon="2.00923">
        <ele>331.6</ele>
        <time>2015-05-25T09:49:04.000Z</time>
      </trkpt>
      <trkpt lat="44.28105" lon="2.00921">
        <ele>330.8</ele>
        <time>2015-05-25T09:49:11.000Z</time>
      </trkpt>
      <trkpt lat="44.28102" lon="2.00918">
        <ele>329.9</ele>
        <time>2015-05-25T09:49:14.000Z</time>
      </trkpt>
      <trkpt lat="44.28094" lon="2.00911">
        <ele>327.8</ele>
        <time>2015-05-25T09:49:20.000Z</time>
      </trkpt>
      <trkpt lat="44.28086" lon="2.00911">
        <ele>327.2</ele>
        <time>2015-05-25T09:49:27.000Z</time>
      </trkpt>
      <trkpt lat="44.28085" lon="2.00911">
        <ele>327.3</ele>
        <time>2015-05-25T09:49:28.000Z</time>
      </trkpt>
      <trkpt lat="44.28078" lon="2.00912">
        <ele>326.5</ele>
        <time>2015-05-25T09:49:34.000Z</time>
      </trkpt>
      <trkpt lat="44.28072" lon="2.00913">
        <ele>325.9</ele>
        <time>2015-05-25T09:49:39.000Z</time>
      </trkpt>
      <trkpt lat="44.28067" lon="2.00912">
        <ele>324.8</ele>
        <time>2015-05-25T09:49:44.000Z</time>
      </trkpt>
      <trkpt lat="44.28063" lon="2.00913">
        <ele>324.3</ele>
        <time>2015-05-25T09:49:47.000Z</time>
      </trkpt>
      <trkpt lat="44.28058" lon="2.00914">
        <ele>323.7</ele>
        <time>2015-05-25T09:49:52.000Z</time>
      </trkpt>
      <trkpt lat="44.28056" lon="2.00914">
        <ele>323.4</ele>
        <time>2015-05-25T09:49:54.000Z</time>
      </trkpt>
      <trkpt lat="44.28061" lon="2.00907">
        <ele>322.4</ele>
        <time>2015-05-25T09:49:59.000Z</time>
      </trkpt>
      <trkpt lat="44.28066" lon="2.00901">
        <ele>321.4</ele>
        <time>2015-05-25T09:50:04.000Z</time>
      </trkpt>
      <trkpt lat="44.2807" lon="2.00896">
        <ele>320.7</ele>
        <time>2015-05-25T09:50:10.000Z</time>
      </trkpt>
      <trkpt lat="44.28077" lon="2.00888">
        <ele>319</ele>
        <time>2015-05-25T09:50:18.000Z</time>
      </trkpt>
      <trkpt lat="44.28083" lon="2.00883">
        <ele>318.6</ele>
        <time>2015-05-25T09:50:23.000Z</time>
      </trkpt>
      <trkpt lat="44.2809" lon="2.00881">
        <ele>318.4</ele>
        <time>2015-05-25T09:50:30.000Z</time>
      </trkpt>
      <trkpt lat="44.28097" lon="2.00874">
        <ele>316.9</ele>
        <time>2015-05-25T09:50:38.000Z</time>
      </trkpt>
      <trkpt lat="44.28101" lon="2.0087">
        <ele>316</ele>
        <time>2015-05-25T09:50:42.000Z</time>
      </trkpt>
      <trkpt lat="44.28109" lon="2.00863">
        <ele>314.5</ele>
        <time>2015-05-25T09:50:50.000Z</time>
      </trkpt>
      <trkpt lat="44.28114" lon="2.00861">
        <ele>313.7</ele>
        <time>2015-05-25T09:50:54.000Z</time>
      </trkpt>
      <trkpt lat="44.28121" lon="2.00856">
        <ele>312.5</ele>
        <time>2015-05-25T09:51:00.000Z</time>
      </trkpt>
      <trkpt lat="44.28127" lon="2.00852">
        <ele>311.4</ele>
        <time>2015-05-25T09:51:06.000Z</time>
      </trkpt>
      <trkpt lat="44.28132" lon="2.00847">
        <ele>310.1</ele>
        <time>2015-05-25T09:51:12.000Z</time>
      </trkpt>
      <trkpt lat="44.28132" lon="2.00845">
        <ele>309.6</ele>
        <time>2015-05-25T09:51:14.000Z</time>
      </trkpt>
      <trkpt lat="44.28127" lon="2.0084">
        <ele>308.7</ele>
        <time>2015-05-25T09:51:23.000Z</time>
      </trkpt>
      <trkpt lat="44.28119" lon="2.00834">
        <ele>307.3</ele>
        <time>2015-05-25T09:51:30.000Z</time>
      </trkpt>
      <trkpt lat="44.28113" lon="2.0083">
        <ele>306.3</ele>
        <time>2015-05-25T09:51:36.000Z</time>
      </trkpt>
      <trkpt lat="44.28109" lon="2.00825">
        <ele>305.4</ele>
        <time>2015-05-25T09:51:41.000Z</time>
      </trkpt>
      <trkpt lat="44.28106" lon="2.00823">
        <ele>304.8</ele>
        <time>2015-05-25T09:51:45.000Z</time>
      </trkpt>
      <trkpt lat="44.281" lon="2.00818">
        <ele>303.5</ele>
        <time>2015-05-25T09:51:52.000Z</time>
      </trkpt>
      <trkpt lat="44.28097" lon="2.00815">
        <ele>302.9</ele>
        <time>2015-05-25T09:51:55.000Z</time>
      </trkpt>
      <trkpt lat="44.2809" lon="2.00813">
        <ele>301.9</ele>
        <time>2015-05-25T09:52:01.000Z</time>
      </trkpt>
      <trkpt lat="44.28085" lon="2.00811">
        <ele>301.4</ele>
        <time>2015-05-25T09:52:06.000Z</time>
      </trkpt>
      <trkpt lat="44.28078" lon="2.00807">
        <ele>299.6</ele>
        <time>2015-05-25T09:52:13.000Z</time>
      </trkpt>
      <trkpt lat="44.2807" lon="2.00806">
        <ele>298.1</ele>
        <time>2015-05-25T09:52:20.000Z</time>
      </trkpt>
      <trkpt lat="44.28069" lon="2.00806">
        <ele>298</ele>
        <time>2015-05-25T09:52:22.000Z</time>
      </trkpt>
      <trkpt lat="44.28067" lon="2.00804">
        <ele>297.3</ele>
        <time>2015-05-25T09:52:26.000Z</time>
      </trkpt>
      <trkpt lat="44.28061" lon="2.00803">
        <ele>296.3</ele>
        <time>2015-05-25T09:52:31.000Z</time>
      </trkpt>
      <trkpt lat="44.28057" lon="2.00798">
        <ele>294.8</ele>
        <time>2015-05-25T09:52:37.000Z</time>
      </trkpt>
      <trkpt lat="44.28049" lon="2.00792">
        <ele>294</ele>
        <time>2015-05-25T09:52:44.000Z</time>
      </trkpt>
      <trkpt lat="44.28048" lon="2.0079">
        <ele>293.6</ele>
        <time>2015-05-25T09:52:47.000Z</time>
      </trkpt>
      <trkpt lat="44.28044" lon="2.00786">
        <ele>293</ele>
        <time>2015-05-25T09:52:50.000Z</time>
      </trkpt>
      <trkpt lat="44.28037" lon="2.00782">
        <ele>292.6</ele>
        <time>2015-05-25T09:52:57.000Z</time>
      </trkpt>
      <trkpt lat="44.28034" lon="2.00779">
        <ele>291.9</ele>
        <time>2015-05-25T09:52:59.000Z</time>
      </trkpt>
      <trkpt lat="44.28029" lon="2.00772">
        <ele>290.7</ele>
        <time>2015-05-25T09:53:03.000Z</time>
      </trkpt>
      <trkpt lat="44.28021" lon="2.00767">
        <ele>289.4</ele>
        <time>2015-05-25T09:53:10.000Z</time>
      </trkpt>
      <trkpt lat="44.28013" lon="2.00763">
        <ele>288.4</ele>
        <time>2015-05-25T09:53:17.000Z</time>
      </trkpt>
      <trkpt lat="44.2801" lon="2.00762">
        <ele>287.9</ele>
        <time>2015-05-25T09:53:21.000Z</time>
      </trkpt>
      <trkpt lat="44.28006" lon="2.00758">
        <ele>286.9</ele>
        <time>2015-05-25T09:53:28.000Z</time>
      </trkpt>
      <trkpt lat="44.28003" lon="2.00755">
        <ele>286.2</ele>
        <time>2015-05-25T09:53:32.000Z</time>
      </trkpt>
      <trkpt lat="44.27998" lon="2.00753">
        <ele>285.4</ele>
        <time>2015-05-25T09:53:41.000Z</time>
      </trkpt>
      <trkpt lat="44.27996" lon="2.0075">
        <ele>284.8</ele>
        <time>2015-05-25T09:53:47.000Z</time>
      </trkpt>
      <trkpt lat="44.27996" lon="2.00747">
        <ele>284</ele>
        <time>2015-05-25T09:53:51.000Z</time>
      </trkpt>
      <trkpt lat="44.28" lon="2.00733">
        <ele>281.4</ele>
        <time>2015-05-25T09:53:59.000Z</time>
      </trkpt>
      <trkpt lat="44.28002" lon="2.00732">
        <ele>281.3</ele>
        <time>2015-05-25T09:54:01.000Z</time>
      </trkpt>
      <trkpt lat="44.28013" lon="2.00729">
        <ele>280.8</ele>
        <time>2015-05-25T09:54:10.000Z</time>
      </trkpt>
      <trkpt lat="44.28018" lon="2.00725">
        <ele>280.2</ele>
        <time>2015-05-25T09:54:15.000Z</time>
      </trkpt>
      <trkpt lat="44.28023" lon="2.00721">
        <ele>279.6</ele>
        <time>2015-05-25T09:54:20.000Z</time>
      </trkpt>
      <trkpt lat="44.28026" lon="2.00719">
        <ele>279.5</ele>
        <time>2015-05-25T09:54:23.000Z</time>
      </trkpt>
      <trkpt lat="44.28031" lon="2.00716">
        <ele>279.2</ele>
        <time>2015-05-25T09:54:28.000Z</time>
      </trkpt>
      <trkpt lat="44.28033" lon="2.00712">
        <ele>278.7</ele>
        <time>2015-05-25T09:54:30.000Z</time>
      </trkpt>
      <trkpt lat="44.28038" lon="2.00705">
        <ele>277.9</ele>
        <time>2015-05-25T09:54:36.000Z</time>
      </trkpt>
      <trkpt lat="44.28043" lon="2.00696">
        <ele>276.7</ele>
        <time>2015-05-25T09:54:41.000Z</time>
      </trkpt>
      <trkpt lat="44.28045" lon="2.0069">
        <ele>276.1</ele>
        <time>2015-05-25T09:54:45.000Z</time>
      </trkpt>
      <trkpt lat="44.28049" lon="2.00684">
        <ele>275.3</ele>
        <time>2015-05-25T09:54:50.000Z</time>
      </trkpt>
      <trkpt lat="44.28053" lon="2.00677">
        <ele>274.5</ele>
        <time>2015-05-25T09:54:55.000Z</time>
      </trkpt>
      <trkpt lat="44.28052" lon="2.00669">
        <ele>273.3</ele>
        <time>2015-05-25T09:55:00.000Z</time>
      </trkpt>
      <trkpt lat="44.28047" lon="2.0066">
        <ele>272.1</ele>
        <time>2015-05-25T09:55:07.000Z</time>
      </trkpt>
      <trkpt lat="44.2804" lon="2.00651">
        <ele>271</ele>
        <time>2015-05-25T09:55:13.000Z</time>
      </trkpt>
      <trkpt lat="44.28038" lon="2.0065">
        <ele>271</ele>
        <time>2015-05-25T09:55:15.000Z</time>
      </trkpt>
      <trkpt lat="44.28031" lon="2.00654">
        <ele>271.6</ele>
        <time>2015-05-25T09:55:22.000Z</time>
      </trkpt>
      <trkpt lat="44.28023" lon="2.0066">
        <ele>272</ele>
        <time>2015-05-25T09:55:30.000Z</time>
      </trkpt>
      <trkpt lat="44.28012" lon="2.0067">
        <ele>272.8</ele>
        <time>2015-05-25T09:55:39.000Z</time>
      </trkpt>
      <trkpt lat="44.28004" lon="2.00676">
        <ele>273.5</ele>
        <time>2015-05-25T09:55:45.000Z</time>
      </trkpt>
      <trkpt lat="44.27995" lon="2.00682">
        <ele>274.1</ele>
        <time>2015-05-25T09:55:52.000Z</time>
      </trkpt>
      <trkpt lat="44.27986" lon="2.00687">
        <ele>274.4</ele>
        <time>2015-05-25T09:55:59.000Z</time>
      </trkpt>
      <trkpt lat="44.27972" lon="2.00695">
        <ele>275</ele>
        <time>2015-05-25T09:56:10.000Z</time>
      </trkpt>
      <trkpt lat="44.27962" lon="2.007">
        <ele>275.5</ele>
        <time>2015-05-25T09:56:17.000Z</time>
      </trkpt>
      <trkpt lat="44.27952" lon="2.00704">
        <ele>276</ele>
        <time>2015-05-25T09:56:24.000Z</time>
      </trkpt>
      <trkpt lat="44.27941" lon="2.00708">
        <ele>276.8</ele>
        <time>2015-05-25T09:56:32.000Z</time>
      </trkpt>
      <trkpt lat="44.27931" lon="2.00712">
        <ele>277.3</ele>
        <time>2015-05-25T09:56:40.000Z</time>
      </trkpt>
      <trkpt lat="44.27921" lon="2.00714">
        <ele>277.5</ele>
        <time>2015-05-25T09:56:47.000Z</time>
      </trkpt>
      <trkpt lat="44.27917" lon="2.00716">
        <ele>277.6</ele>
        <time>2015-05-25T09:56:50.000Z</time>
      </trkpt>
      <trkpt lat="44.27909" lon="2.0072">
        <ele>278.6</ele>
        <time>2015-05-25T09:56:57.000Z</time>
      </trkpt>
      <trkpt lat="44.27908" lon="2.0072">
        <ele>278.6</ele>
        <time>2015-05-25T09:56:58.000Z</time>
      </trkpt>
      <trkpt lat="44.27895" lon="2.00719">
        <ele>278.4</ele>
        <time>2015-05-25T09:57:07.000Z</time>
      </trkpt>
      <trkpt lat="44.27884" lon="2.00719">
        <ele>278.3</ele>
        <time>2015-05-25T09:57:14.000Z</time>
      </trkpt>
      <trkpt lat="44.27872" lon="2.00719">
        <ele>277.9</ele>
        <time>2015-05-25T09:57:23.000Z</time>
      </trkpt>
      <trkpt lat="44.27862" lon="2.00719">
        <ele>277.6</ele>
        <time>2015-05-25T09:57:30.000Z</time>
      </trkpt>
      <trkpt lat="44.27853" lon="2.00718">
        <ele>277.8</ele>
        <time>2015-05-25T09:57:37.000Z</time>
      </trkpt>
      <trkpt lat="44.27849" lon="2.00717">
        <ele>277.9</ele>
        <time>2015-05-25T09:57:40.000Z</time>
      </trkpt>
      <trkpt lat="44.27839" lon="2.00715">
        <ele>278.1</ele>
        <time>2015-05-25T09:57:47.000Z</time>
      </trkpt>
      <trkpt lat="44.27835" lon="2.00712">
        <ele>277.7</ele>
        <time>2015-05-25T09:57:50.000Z</time>
      </trkpt>
      <trkpt lat="44.27824" lon="2.00709">
        <ele>277.6</ele>
        <time>2015-05-25T09:57:58.000Z</time>
      </trkpt>
      <trkpt lat="44.27813" lon="2.00704">
        <ele>276.7</ele>
        <time>2015-05-25T09:58:06.000Z</time>
      </trkpt>
      <trkpt lat="44.27804" lon="2.00698">
        <ele>275.1</ele>
        <time>2015-05-25T09:58:13.000Z</time>
      </trkpt>
      <trkpt lat="44.27796" lon="2.00689">
        <ele>273.3</ele>
        <time>2015-05-25T09:58:20.000Z</time>
      </trkpt>
      <trkpt lat="44.27789" lon="2.00679">
        <ele>271.8</ele>
        <time>2015-05-25T09:58:27.000Z</time>
      </trkpt>
      <trkpt lat="44.27781" lon="2.00666">
        <ele>270</ele>
        <time>2015-05-25T09:58:35.000Z</time>
      </trkpt>
      <trkpt lat="44.2778" lon="2.00665">
        <ele>269.8</ele>
        <time>2015-05-25T09:58:36.000Z</time>
      </trkpt>
      <trkpt lat="44.27772" lon="2.00657">
        <ele>268.8</ele>
        <time>2015-05-25T09:58:43.000Z</time>
      </trkpt>
      <trkpt lat="44.27769" lon="2.00654">
        <ele>268.4</ele>
        <time>2015-05-25T09:58:46.000Z</time>
      </trkpt>
      <trkpt lat="44.27761" lon="2.00648">
        <ele>267.8</ele>
        <time>2015-05-25T09:58:53.000Z</time>
      </trkpt>
      <trkpt lat="44.2775" lon="2.0064">
        <ele>267.1</ele>
        <time>2015-05-25T09:59:02.000Z</time>
      </trkpt>
      <trkpt lat="44.27745" lon="2.00639">
        <ele>267.4</ele>
        <time>2015-05-25T09:59:06.000Z</time>
      </trkpt>
      <trkpt lat="44.27737" lon="2.00637">
        <ele>267.8</ele>
        <time>2015-05-25T09:59:12.000Z</time>
      </trkpt>
      <trkpt lat="44.27732" lon="2.00634">
        <ele>267.6</ele>
        <time>2015-05-25T09:59:16.000Z</time>
      </trkpt>
      <trkpt lat="44.27725" lon="2.0063">
        <ele>267.6</ele>
        <time>2015-05-25T09:59:22.000Z</time>
      </trkpt>
      <trkpt lat="44.27717" lon="2.00622">
        <ele>267.2</ele>
        <time>2015-05-25T09:59:30.000Z</time>
      </trkpt>
      <trkpt lat="44.27706" lon="2.00614">
        <ele>268.3</ele>
        <time>2015-05-25T09:59:39.000Z</time>
      </trkpt>
      <trkpt lat="44.27699" lon="2.00609">
        <ele>268.9</ele>
        <time>2015-05-25T09:59:45.000Z</time>
      </trkpt>
      <trkpt lat="44.2769" lon="2.00605">
        <ele>269.3</ele>
        <time>2015-05-25T09:59:52.000Z</time>
      </trkpt>
      <trkpt lat="44.27682" lon="2.00603">
        <ele>269.4</ele>
        <time>2015-05-25T09:59:57.000Z</time>
      </trkpt>
      <trkpt lat="44.27679" lon="2.00601">
        <ele>269.3</ele>
        <time>2015-05-25T10:00:00.000Z</time>
      </trkpt>
      <trkpt lat="44.27674" lon="2.006">
        <ele>269.6</ele>
        <time>2015-05-25T10:00:05.000Z</time>
      </trkpt>
      <trkpt lat="44.27671" lon="2.00599">
        <ele>269.7</ele>
        <time>2015-05-25T10:00:07.000Z</time>
      </trkpt>
      <trkpt lat="44.27662" lon="2.00593">
        <ele>269.7</ele>
        <time>2015-05-25T10:00:14.000Z</time>
      </trkpt>
      <trkpt lat="44.2766" lon="2.00591">
        <ele>269.3</ele>
        <time>2015-05-25T10:00:16.000Z</time>
      </trkpt>
      <trkpt lat="44.27652" lon="2.00587">
        <ele>268.1</ele>
        <time>2015-05-25T10:00:23.000Z</time>
      </trkpt>
      <trkpt lat="44.27643" lon="2.00585">
        <ele>266.9</ele>
        <time>2015-05-25T10:00:29.000Z</time>
      </trkpt>
      <trkpt lat="44.27636" lon="2.00579">
        <ele>266.6</ele>
        <time>2015-05-25T10:00:35.000Z</time>
      </trkpt>
      <trkpt lat="44.27635" lon="2.00577">
        <ele>266.7</ele>
        <time>2015-05-25T10:00:36.000Z</time>
      </trkpt>
      <trkpt lat="44.27626" lon="2.00572">
        <ele>266.7</ele>
        <time>2015-05-25T10:00:41.000Z</time>
      </trkpt>
      <trkpt lat="44.27624" lon="2.00571">
        <ele>266.7</ele>
        <time>2015-05-25T10:00:43.000Z</time>
      </trkpt>
      <trkpt lat="44.27617" lon="2.00569">
        <ele>266.1</ele>
        <time>2015-05-25T10:00:49.000Z</time>
      </trkpt>
      <trkpt lat="44.27615" lon="2.00566">
        <ele>265.4</ele>
        <time>2015-05-25T10:00:52.000Z</time>
      </trkpt>
      <trkpt lat="44.27604" lon="2.00564">
        <ele>264</ele>
        <time>2015-05-25T10:01:01.000Z</time>
      </trkpt>
      <trkpt lat="44.27595" lon="2.00561">
        <ele>262.5</ele>
        <time>2015-05-25T10:01:08.000Z</time>
      </trkpt>
      <trkpt lat="44.27591" lon="2.0056">
        <ele>261.8</ele>
        <time>2015-05-25T10:01:12.000Z</time>
      </trkpt>
      <trkpt lat="44.27585" lon="2.00556">
        <ele>260.2</ele>
        <time>2015-05-25T10:01:18.000Z</time>
      </trkpt>
      <trkpt lat="44.27577" lon="2.00551">
        <ele>259.4</ele>
        <time>2015-05-25T10:01:26.000Z</time>
      </trkpt>
      <trkpt lat="44.27575" lon="2.00551">
        <ele>259.5</ele>
        <time>2015-05-25T10:01:28.000Z</time>
      </trkpt>
      <trkpt lat="44.27566" lon="2.00544">
        <ele>258.3</ele>
        <time>2015-05-25T10:01:34.000Z</time>
      </trkpt>
      <trkpt lat="44.27565" lon="2.00543">
        <ele>258.2</ele>
        <time>2015-05-25T10:01:35.000Z</time>
      </trkpt>
      <trkpt lat="44.27553" lon="2.00537">
        <ele>257.6</ele>
        <time>2015-05-25T10:01:43.000Z</time>
      </trkpt>
      <trkpt lat="44.27541" lon="2.00534">
        <ele>256.1</ele>
        <time>2015-05-25T10:01:50.000Z</time>
      </trkpt>
      <trkpt lat="44.27531" lon="2.00528">
        <ele>254.2</ele>
        <time>2015-05-25T10:01:57.000Z</time>
      </trkpt>
      <trkpt lat="44.27523" lon="2.00524">
        <ele>253.1</ele>
        <time>2015-05-25T10:02:03.000Z</time>
      </trkpt>
      <trkpt lat="44.27514" lon="2.00524">
        <ele>253.4</ele>
        <time>2015-05-25T10:02:09.000Z</time>
      </trkpt>
      <trkpt lat="44.27503" lon="2.00522">
        <ele>253.2</ele>
        <time>2015-05-25T10:02:16.000Z</time>
      </trkpt>
      <trkpt lat="44.275" lon="2.00521">
        <ele>253.1</ele>
        <time>2015-05-25T10:02:18.000Z</time>
      </trkpt>
      <trkpt lat="44.27493" lon="2.00517">
        <ele>252.6</ele>
        <time>2015-05-25T10:02:24.000Z</time>
      </trkpt>
      <trkpt lat="44.27485" lon="2.00515">
        <ele>252.8</ele>
        <time>2015-05-25T10:02:31.000Z</time>
      </trkpt>
      <trkpt lat="44.27474" lon="2.00515">
        <ele>253.6</ele>
        <time>2015-05-25T10:02:39.000Z</time>
      </trkpt>
      <trkpt lat="44.27466" lon="2.00513">
        <ele>253.1</ele>
        <time>2015-05-25T10:02:44.000Z</time>
      </trkpt>
      <trkpt lat="44.27458" lon="2.00509">
        <ele>252.2</ele>
        <time>2015-05-25T10:02:51.000Z</time>
      </trkpt>
      <trkpt lat="44.27454" lon="2.0051">
        <ele>252.3</ele>
        <time>2015-05-25T10:02:53.000Z</time>
      </trkpt>
      <trkpt lat="44.27442" lon="2.00506">
        <ele>251.6</ele>
        <time>2015-05-25T10:03:01.000Z</time>
      </trkpt>
      <trkpt lat="44.27432" lon="2.00503">
        <ele>251.1</ele>
        <time>2015-05-25T10:03:09.000Z</time>
      </trkpt>
      <trkpt lat="44.27423" lon="2.00503">
        <ele>251</ele>
        <time>2015-05-25T10:03:14.000Z</time>
      </trkpt>
      <trkpt lat="44.27416" lon="2.00503">
        <ele>251.2</ele>
        <time>2015-05-25T10:03:19.000Z</time>
      </trkpt>
      <trkpt lat="44.27413" lon="2.00503">
        <ele>252</ele>
        <time>2015-05-25T10:03:21.000Z</time>
      </trkpt>
      <trkpt lat="44.27402" lon="2.00499">
        <ele>252.3</ele>
        <time>2015-05-25T10:03:30.000Z</time>
      </trkpt>
      <trkpt lat="44.27399" lon="2.00498">
        <ele>252.7</ele>
        <time>2015-05-25T10:03:33.000Z</time>
      </trkpt>
      <trkpt lat="44.27393" lon="2.00498">
        <ele>253.6</ele>
        <time>2015-05-25T10:03:38.000Z</time>
      </trkpt>
      <trkpt lat="44.27384" lon="2.00495">
        <ele>253.6</ele>
        <time>2015-05-25T10:03:46.000Z</time>
      </trkpt>
      <trkpt lat="44.27371" lon="2.0049">
        <ele>252.8</ele>
        <time>2015-05-25T10:03:55.000Z</time>
      </trkpt>
      <trkpt lat="44.2737" lon="2.0049">
        <ele>252.7</ele>
        <time>2015-05-25T10:03:56.000Z</time>
      </trkpt>
      <trkpt lat="44.27358" lon="2.00481">
        <ele>250.2</ele>
        <time>2015-05-25T10:04:05.000Z</time>
      </trkpt>
      <trkpt lat="44.27348" lon="2.00476">
        <ele>249.7</ele>
        <time>2015-05-25T10:04:13.000Z</time>
      </trkpt>
      <trkpt lat="44.27338" lon="2.0047">
        <ele>248.6</ele>
        <time>2015-05-25T10:04:21.000Z</time>
      </trkpt>
      <trkpt lat="44.27328" lon="2.00464">
        <ele>248.1</ele>
        <time>2015-05-25T10:04:29.000Z</time>
      </trkpt>
      <trkpt lat="44.27317" lon="2.00459">
        <ele>247.1</ele>
        <time>2015-05-25T10:04:37.000Z</time>
      </trkpt>
      <trkpt lat="44.27304" lon="2.00453">
        <ele>245.8</ele>
        <time>2015-05-25T10:04:46.000Z</time>
      </trkpt>
      <trkpt lat="44.27296" lon="2.00441">
        <ele>242.8</ele>
        <time>2015-05-25T10:04:54.000Z</time>
      </trkpt>
      <trkpt lat="44.27293" lon="2.00426">
        <ele>241</ele>
        <time>2015-05-25T10:05:01.000Z</time>
      </trkpt>
      <trkpt lat="44.27292" lon="2.00422">
        <ele>240.5</ele>
        <time>2015-05-25T10:05:03.000Z</time>
      </trkpt>
      <trkpt lat="44.27283" lon="2.0041">
        <ele>240.1</ele>
        <time>2015-05-25T10:05:10.000Z</time>
      </trkpt>
      <trkpt lat="44.27273" lon="2.00403">
        <ele>239.8</ele>
        <time>2015-05-25T10:05:17.000Z</time>
      </trkpt>
      <trkpt lat="44.27263" lon="2.00395">
        <ele>239.7</ele>
        <time>2015-05-25T10:05:25.000Z</time>
      </trkpt>
      <trkpt lat="44.2725" lon="2.00386">
        <ele>240.4</ele>
        <time>2015-05-25T10:05:36.000Z</time>
      </trkpt>
      <trkpt lat="44.27243" lon="2.00381">
        <ele>240</ele>
        <time>2015-05-25T10:05:42.000Z</time>
      </trkpt>
      <trkpt lat="44.27235" lon="2.00376">
        <ele>240</ele>
        <time>2015-05-25T10:05:48.000Z</time>
      </trkpt>
      <trkpt lat="44.27227" lon="2.00371">
        <ele>240.2</ele>
        <time>2015-05-25T10:05:54.000Z</time>
      </trkpt>
      <trkpt lat="44.27219" lon="2.00367">
        <ele>240.5</ele>
        <time>2015-05-25T10:06:00.000Z</time>
      </trkpt>
      <trkpt lat="44.27209" lon="2.00361">
        <ele>240.5</ele>
        <time>2015-05-25T10:06:07.000Z</time>
      </trkpt>
      <trkpt lat="44.27202" lon="2.00356">
        <ele>240.1</ele>
        <time>2015-05-25T10:06:13.000Z</time>
      </trkpt>
      <trkpt lat="44.27197" lon="2.00351">
        <ele>239.8</ele>
        <time>2015-05-25T10:06:18.000Z</time>
      </trkpt>
      <trkpt lat="44.27184" lon="2.00342">
        <ele>240.4</ele>
        <time>2015-05-25T10:06:28.000Z</time>
      </trkpt>
      <trkpt lat="44.27171" lon="2.00333">
        <ele>242.2</ele>
        <time>2015-05-25T10:06:37.000Z</time>
      </trkpt>
      <trkpt lat="44.27159" lon="2.00327">
        <ele>241.5</ele>
        <time>2015-05-25T10:06:46.000Z</time>
      </trkpt>
      <trkpt lat="44.27149" lon="2.00322">
        <ele>240.6</ele>
        <time>2015-05-25T10:06:54.000Z</time>
      </trkpt>
      <trkpt lat="44.2714" lon="2.00316">
        <ele>239.8</ele>
        <time>2015-05-25T10:07:00.000Z</time>
      </trkpt>
      <trkpt lat="44.27139" lon="2.00315">
        <ele>239.7</ele>
        <time>2015-05-25T10:07:01.000Z</time>
      </trkpt>
      <trkpt lat="44.27133" lon="2.00312">
        <ele>239.8</ele>
        <time>2015-05-25T10:07:06.000Z</time>
      </trkpt>
      <trkpt lat="44.27118" lon="2.00303">
        <ele>240.4</ele>
        <time>2015-05-25T10:07:16.000Z</time>
      </trkpt>
      <trkpt lat="44.27108" lon="2.00297">
        <ele>239.5</ele>
        <time>2015-05-25T10:07:23.000Z</time>
      </trkpt>
      <trkpt lat="44.27097" lon="2.00292">
        <ele>239.1</ele>
        <time>2015-05-25T10:07:31.000Z</time>
      </trkpt>
      <trkpt lat="44.27086" lon="2.00287">
        <ele>239.6</ele>
        <time>2015-05-25T10:07:39.000Z</time>
      </trkpt>
      <trkpt lat="44.27076" lon="2.00284">
        <ele>240</ele>
        <time>2015-05-25T10:07:46.000Z</time>
      </trkpt>
      <trkpt lat="44.27072" lon="2.00284">
        <ele>240.3</ele>
        <time>2015-05-25T10:07:49.000Z</time>
      </trkpt>
      <trkpt lat="44.27064" lon="2.00282">
        <ele>240.6</ele>
        <time>2015-05-25T10:07:55.000Z</time>
      </trkpt>
      <trkpt lat="44.27063" lon="2.00281">
        <ele>240.7</ele>
        <time>2015-05-25T10:07:56.000Z</time>
      </trkpt>
      <trkpt lat="44.27049" lon="2.00276">
        <ele>240.6</ele>
        <time>2015-05-25T10:08:05.000Z</time>
      </trkpt>
      <trkpt lat="44.27037" lon="2.00274">
        <ele>240.4</ele>
        <time>2015-05-25T10:08:13.000Z</time>
      </trkpt>
      <trkpt lat="44.27026" lon="2.0027">
        <ele>239.8</ele>
        <time>2015-05-25T10:08:20.000Z</time>
      </trkpt>
      <trkpt lat="44.27017" lon="2.00265">
        <ele>238.8</ele>
        <time>2015-05-25T10:08:27.000Z</time>
      </trkpt>
      <trkpt lat="44.2701" lon="2.00263">
        <ele>238.3</ele>
        <time>2015-05-25T10:08:32.000Z</time>
      </trkpt>
      <trkpt lat="44.27001" lon="2.00258">
        <ele>237.7</ele>
        <time>2015-05-25T10:08:39.000Z</time>
      </trkpt>
      <trkpt lat="44.27" lon="2.00257">
        <ele>237.6</ele>
        <time>2015-05-25T10:08:40.000Z</time>
      </trkpt>
      <trkpt lat="44.26993" lon="2.00254">
        <ele>237.6</ele>
        <time>2015-05-25T10:08:45.000Z</time>
      </trkpt>
      <trkpt lat="44.26984" lon="2.00251">
        <ele>238</ele>
        <time>2015-05-25T10:08:51.000Z</time>
      </trkpt>
      <trkpt lat="44.2697" lon="2.00245">
        <ele>237.7</ele>
        <time>2015-05-25T10:09:01.000Z</time>
      </trkpt>
      <trkpt lat="44.26968" lon="2.00245">
        <ele>237.6</ele>
        <time>2015-05-25T10:09:03.000Z</time>
      </trkpt>
      <trkpt lat="44.26955" lon="2.00244">
        <ele>237.8</ele>
        <time>2015-05-25T10:09:12.000Z</time>
      </trkpt>
      <trkpt lat="44.26947" lon="2.00241">
        <ele>237.1</ele>
        <time>2015-05-25T10:09:18.000Z</time>
      </trkpt>
      <trkpt lat="44.26942" lon="2.0024">
        <ele>236.7</ele>
        <time>2015-05-25T10:09:22.000Z</time>
      </trkpt>
      <trkpt lat="44.26936" lon="2.00241">
        <ele>237.3</ele>
        <time>2015-05-25T10:09:28.000Z</time>
      </trkpt>
      <trkpt lat="44.26929" lon="2.0024">
        <ele>237.3</ele>
        <time>2015-05-25T10:09:33.000Z</time>
      </trkpt>
      <trkpt lat="44.2692" lon="2.00239">
        <ele>237.4</ele>
        <time>2015-05-25T10:09:39.000Z</time>
      </trkpt>
      <trkpt lat="44.26918" lon="2.0024">
        <ele>237.6</ele>
        <time>2015-05-25T10:09:40.000Z</time>
      </trkpt>
      <trkpt lat="44.26908" lon="2.00239">
        <ele>237.5</ele>
        <time>2015-05-25T10:09:47.000Z</time>
      </trkpt>
      <trkpt lat="44.26903" lon="2.00239">
        <ele>237.5</ele>
        <time>2015-05-25T10:09:51.000Z</time>
      </trkpt>
      <trkpt lat="44.26898" lon="2.00239">
        <ele>237.5</ele>
        <time>2015-05-25T10:09:54.000Z</time>
      </trkpt>
      <trkpt lat="44.26892" lon="2.00238">
        <ele>237.3</ele>
        <time>2015-05-25T10:09:58.000Z</time>
      </trkpt>
      <trkpt lat="44.26884" lon="2.00235">
        <ele>236</ele>
        <time>2015-05-25T10:10:02.000Z</time>
      </trkpt>
      <trkpt lat="44.26881" lon="2.00236">
        <ele>236.1</ele>
        <time>2015-05-25T10:10:04.000Z</time>
      </trkpt>
      <trkpt lat="44.26874" lon="2.0024">
        <ele>237.1</ele>
        <time>2015-05-25T10:10:10.000Z</time>
      </trkpt>
      <trkpt lat="44.26861" lon="2.00242">
        <ele>237</ele>
        <time>2015-05-25T10:10:19.000Z</time>
      </trkpt>
      <trkpt lat="44.26853" lon="2.00245">
        <ele>237.2</ele>
        <time>2015-05-25T10:10:24.000Z</time>
      </trkpt>
      <trkpt lat="44.26842" lon="2.00251">
        <ele>238.2</ele>
        <time>2015-05-25T10:10:31.000Z</time>
      </trkpt>
      <trkpt lat="44.26839" lon="2.00251">
        <ele>238</ele>
        <time>2015-05-25T10:10:33.000Z</time>
      </trkpt>
      <trkpt lat="44.26829" lon="2.00248">
        <ele>236.1</ele>
        <time>2015-05-25T10:10:40.000Z</time>
      </trkpt>
      <trkpt lat="44.26822" lon="2.00246">
        <ele>235.2</ele>
        <time>2015-05-25T10:10:44.000Z</time>
      </trkpt>
      <trkpt lat="44.26819" lon="2.00244">
        <ele>234.6</ele>
        <time>2015-05-25T10:10:46.000Z</time>
      </trkpt>
      <trkpt lat="44.26817" lon="2.00244">
        <ele>234.5</ele>
        <time>2015-05-25T10:10:48.000Z</time>
      </trkpt>
      <trkpt lat="44.26811" lon="2.00246">
        <ele>234.6</ele>
        <time>2015-05-25T10:10:52.000Z</time>
      </trkpt>
      <trkpt lat="44.26798" lon="2.0025">
        <ele>234.4</ele>
        <time>2015-05-25T10:11:01.000Z</time>
      </trkpt>
      <trkpt lat="44.26784" lon="2.00253">
        <ele>234.2</ele>
        <time>2015-05-25T10:11:10.000Z</time>
      </trkpt>
      <trkpt lat="44.26783" lon="2.00253">
        <ele>234.2</ele>
        <time>2015-05-25T10:11:11.000Z</time>
      </trkpt>
      <trkpt lat="44.26776" lon="2.00254">
        <ele>234.1</ele>
        <time>2015-05-25T10:11:15.000Z</time>
      </trkpt>
      <trkpt lat="44.26769" lon="2.00256">
        <ele>234.5</ele>
        <time>2015-05-25T10:11:19.000Z</time>
      </trkpt>
      <trkpt lat="44.26759" lon="2.00257">
        <ele>234.6</ele>
        <time>2015-05-25T10:11:25.000Z</time>
      </trkpt>
      <trkpt lat="44.26756" lon="2.00258">
        <ele>234.6</ele>
        <time>2015-05-25T10:11:27.000Z</time>
      </trkpt>
      <trkpt lat="44.26744" lon="2.0026">
        <ele>233.8</ele>
        <time>2015-05-25T10:11:34.000Z</time>
      </trkpt>
      <trkpt lat="44.26741" lon="2.00261">
        <ele>233.5</ele>
        <time>2015-05-25T10:11:36.000Z</time>
      </trkpt>
      <trkpt lat="44.26733" lon="2.00268">
        <ele>233.2</ele>
        <time>2015-05-25T10:11:43.000Z</time>
      </trkpt>
      <trkpt lat="44.26732" lon="2.00269">
        <ele>233.2</ele>
        <time>2015-05-25T10:11:44.000Z</time>
      </trkpt>
      <trkpt lat="44.26718" lon="2.00283">
        <ele>232.8</ele>
        <time>2015-05-25T10:11:54.000Z</time>
      </trkpt>
      <trkpt lat="44.26707" lon="2.0029">
        <ele>232.2</ele>
        <time>2015-05-25T10:12:01.000Z</time>
      </trkpt>
      <trkpt lat="44.26696" lon="2.00303">
        <ele>232.7</ele>
        <time>2015-05-25T10:12:10.000Z</time>
      </trkpt>
      <trkpt lat="44.26684" lon="2.00312">
        <ele>232.3</ele>
        <time>2015-05-25T10:12:19.000Z</time>
      </trkpt>
      <trkpt lat="44.26672" lon="2.00317">
        <ele>230.4</ele>
        <time>2015-05-25T10:12:28.000Z</time>
      </trkpt>
      <trkpt lat="44.2666" lon="2.0031">
        <ele>228.7</ele>
        <time>2015-05-25T10:12:36.000Z</time>
      </trkpt>
      <trkpt lat="44.26648" lon="2.00301">
        <ele>227.6</ele>
        <time>2015-05-25T10:12:45.000Z</time>
      </trkpt>
      <trkpt lat="44.26639" lon="2.00293">
        <ele>227</ele>
        <time>2015-05-25T10:12:52.000Z</time>
      </trkpt>
      <trkpt lat="44.26626" lon="2.00284">
        <ele>230.4</ele>
        <time>2015-05-25T10:13:01.000Z</time>
      </trkpt>
      <trkpt lat="44.26619" lon="2.00273">
        <ele>232.7</ele>
        <time>2015-05-25T10:13:08.000Z</time>
      </trkpt>
      <trkpt lat="44.26613" lon="2.00258">
        <ele>234.6</ele>
        <time>2015-05-25T10:13:14.000Z</time>
      </trkpt>
      <trkpt lat="44.26614" lon="2.00245">
        <ele>235</ele>
        <time>2015-05-25T10:13:20.000Z</time>
      </trkpt>
      <trkpt lat="44.26614" lon="2.00232">
        <ele>236</ele>
        <time>2015-05-25T10:13:26.000Z</time>
      </trkpt>
      <trkpt lat="44.26615" lon="2.00216">
        <ele>237</ele>
        <time>2015-05-25T10:13:33.000Z</time>
      </trkpt>
      <trkpt lat="44.26616" lon="2.00212">
        <ele>236.7</ele>
        <time>2015-05-25T10:13:35.000Z</time>
      </trkpt>
      <trkpt lat="44.26621" lon="2.00197">
        <ele>235.8</ele>
        <time>2015-05-25T10:13:43.000Z</time>
      </trkpt>
      <trkpt lat="44.26624" lon="2.00186">
        <ele>234.8</ele>
        <time>2015-05-25T10:13:49.000Z</time>
      </trkpt>
      <trkpt lat="44.26626" lon="2.00176">
        <ele>234.1</ele>
        <time>2015-05-25T10:13:54.000Z</time>
      </trkpt>
      <trkpt lat="44.26631" lon="2.0016">
        <ele>232.7</ele>
        <time>2015-05-25T10:14:02.000Z</time>
      </trkpt>
      <trkpt lat="44.26638" lon="2.00141">
        <ele>232.1</ele>
        <time>2015-05-25T10:14:12.000Z</time>
      </trkpt>
      <trkpt lat="44.26643" lon="2.00126">
        <ele>232.2</ele>
        <time>2015-05-25T10:14:20.000Z</time>
      </trkpt>
      <trkpt lat="44.26649" lon="2.00109">
        <ele>232.1</ele>
        <time>2015-05-25T10:14:29.000Z</time>
      </trkpt>
      <trkpt lat="44.26656" lon="2.0009">
        <ele>230.8</ele>
        <time>2015-05-25T10:14:39.000Z</time>
      </trkpt>
      <trkpt lat="44.26662" lon="2.00073">
        <ele>230.6</ele>
        <time>2015-05-25T10:14:48.000Z</time>
      </trkpt>
      <trkpt lat="44.26665" lon="2.00062">
        <ele>230.8</ele>
        <time>2015-05-25T10:14:54.000Z</time>
      </trkpt>
      <trkpt lat="44.26673" lon="2.00044">
        <ele>230.5</ele>
        <time>2015-05-25T10:15:04.000Z</time>
      </trkpt>
      <trkpt lat="44.26675" lon="2.00041">
        <ele>230.3</ele>
        <time>2015-05-25T10:15:06.000Z</time>
      </trkpt>
      <trkpt lat="44.26676" lon="2.00038">
        <ele>230.2</ele>
        <time>2015-05-25T10:15:08.000Z</time>
      </trkpt>
      <trkpt lat="44.26686" lon="2.00027">
        <ele>230</ele>
        <time>2015-05-25T10:15:16.000Z</time>
      </trkpt>
      <trkpt lat="44.2669" lon="2.00023">
        <ele>230</ele>
        <time>2015-05-25T10:15:19.000Z</time>
      </trkpt>
      <trkpt lat="44.26694" lon="2.00011">
        <ele>230</ele>
        <time>2015-05-25T10:15:25.000Z</time>
      </trkpt>
      <trkpt lat="44.26701" lon="2.00001">
        <ele>230</ele>
        <time>2015-05-25T10:15:32.000Z</time>
      </trkpt>
      <trkpt lat="44.26709" lon="1.99989">
        <ele>229.8</ele>
        <time>2015-05-25T10:15:40.000Z</time>
      </trkpt>
      <trkpt lat="44.26711" lon="1.99985">
        <ele>229.8</ele>
        <time>2015-05-25T10:15:42.000Z</time>
      </trkpt>
      <trkpt lat="44.26717" lon="1.99974">
        <ele>229.8</ele>
        <time>2015-05-25T10:15:49.000Z</time>
      </trkpt>
      <trkpt lat="44.2672" lon="1.99964">
        <ele>230.2</ele>
        <time>2015-05-25T10:15:54.000Z</time>
      </trkpt>
      <trkpt lat="44.26724" lon="1.99949">
        <ele>230.8</ele>
        <time>2015-05-25T10:16:00.000Z</time>
      </trkpt>
      <trkpt lat="44.26726" lon="1.9994">
        <ele>230.7</ele>
        <time>2015-05-25T10:16:04.000Z</time>
      </trkpt>
      <trkpt lat="44.26731" lon="1.99924">
        <ele>230.4</ele>
        <time>2015-05-25T10:16:12.000Z</time>
      </trkpt>
      <trkpt lat="44.26734" lon="1.99915">
        <ele>230.4</ele>
        <time>2015-05-25T10:16:16.000Z</time>
      </trkpt>
      <trkpt lat="44.2674" lon="1.99904">
        <ele>230.6</ele>
        <time>2015-05-25T10:16:23.000Z</time>
      </trkpt>
      <trkpt lat="44.26743" lon="1.99894">
        <ele>230.8</ele>
        <time>2015-05-25T10:16:29.000Z</time>
      </trkpt>
      <trkpt lat="44.26747" lon="1.99882">
        <ele>231.2</ele>
        <time>2015-05-25T10:16:36.000Z</time>
      </trkpt>
      <trkpt lat="44.26746" lon="1.99874">
        <ele>231.5</ele>
        <time>2015-05-25T10:16:42.000Z</time>
      </trkpt>
    </trkseg>
  </trk>
</gpx>